Observation data for South Plains 3ENE on 10/18/2019      Previous  Date       Current Mesonet Observations  Soil Data  Daily Summary Page  Observations in Plain Language
KSP2 180500Z 18011KT 15/04 A2985 RMK A01 T01540042  RH  047%=      5-min Rain = 0
KSP2 180501Z 18012KT 15/04 A2985 RMK A01 T01540042  RH  047%=      5-min Rain = 0
KSP2 180502Z 18013KT 15/04 A2985 RMK A01 T01530042  RH  047%=      5-min Rain = 0
KSP2 180503Z 18013KT 15/04 A2985 RMK A01 T01540042  RH  047%=      5-min Rain = 0
KSP2 180504Z 17015KT 15/04 A2985 RMK A01 T01540042  RH  047%=      5-min Rain = 0
KSP2 180505Z 18015KT 16/04 A2985 RMK A01 T01550041  RH  047%=      5-min Rain = 0
KSP2 180506Z 18013KT 16/04 A2985 RMK A01 T01550041  RH  047%=      5-min Rain = 0
KSP2 180507Z 18013KT 16/04 A2985 RMK A01 T01550042  RH  047%=      5-min Rain = 0
KSP2 180508Z 17012KT 16/04 A2985 RMK A01 T01550042  RH  047%=      5-min Rain = 0
KSP2 180509Z 18013KT 16/04 A2985 RMK A01 T01550042  RH  047%=      5-min Rain = 0
KSP2 180510Z 18012KT 15/04 A2985 RMK A01 T01540041  RH  047%=      5-min Rain = 0
KSP2 180511Z 17013KT 15/04 A2985 RMK A01 T01540041  RH  047%=      5-min Rain = 0
KSP2 180512Z 17013KT 15/04 A2985 RMK A01 T01540041  RH  047%=      5-min Rain = 0
KSP2 180513Z 18011KT 15/04 A2985 RMK A01 T01530041  RH  047%=      5-min Rain = 0
KSP2 180514Z 18012KT 15/04 A2985 RMK A01 T01530041  RH  047%=      5-min Rain = 0
KSP2 180515Z 18013KT 15/04 A2985 RMK A01 T01530041  RH  047%=      5-min Rain = 0
KSP2 180516Z 17012KT 15/04 A2985 RMK A01 T01530041  RH  047%=      5-min Rain = 0
KSP2 180517Z 18014KT 15/04 A2985 RMK A01 T01530041  RH  047%=      5-min Rain = 0
KSP2 180518Z 17014KT 15/04 A2985 RMK A01 T01540041  RH  047%=      5-min Rain = 0
KSP2 180519Z 18013KT 15/04 A2985 RMK A01 T01540040  RH  047%=      5-min Rain = 0
KSP2 180520Z 18014KT 15/04 A2985 RMK A01 T01540040  RH  046%=      5-min Rain = 0
KSP2 180521Z 18013KT 15/04 A2985 RMK A01 T01540040  RH  046%=      5-min Rain = 0
KSP2 180522Z 18013KT 15/04 A2985 RMK A01 T01540040  RH  046%=      5-min Rain = 0
KSP2 180523Z 18014KT 15/04 A2985 RMK A01 T01540040  RH  046%=      5-min Rain = 0
KSP2 180524Z 18015KT 15/04 A2985 RMK A01 T01540039  RH  046%=      5-min Rain = 0
KSP2 180525Z 18012KT 15/04 A2985 RMK A01 T01540040  RH  046%=      5-min Rain = 0
KSP2 180526Z 17012KT 15/04 A2985 RMK A01 T01540040  RH  047%=      5-min Rain = 0
KSP2 180527Z 18012KT 15/04 A2985 RMK A01 T01530039  RH  047%=      5-min Rain = 0
KSP2 180528Z 18014KT 15/04 A2985 RMK A01 T01530039  RH  047%=      5-min Rain = 0
KSP2 180529Z 18014G19KT 15/04 A2985 RMK A01 T01530039  RH  047%=      5-min Rain = 0
KSP2 180530Z 18014G19KT 15/04 A2985 RMK A01 T01530039  RH  046%=      5-min Rain = 0
KSP2 180531Z 18013KT 15/04 A2985 RMK A01 T01530039  RH  046%=      5-min Rain = 0
KSP2 180532Z 18012KT 15/04 A2985 RMK A01 T01530039  RH  046%=      5-min Rain = 0
KSP2 180533Z 18015KT 15/04 A2985 RMK A01 T01530039  RH  046%=      5-min Rain = 0
KSP2 180534Z 18013KT 15/04 A2985 RMK A01 T01520039  RH  047%=      5-min Rain = 0
KSP2 180535Z 18013KT 15/04 A2985 RMK A01 T01520039  RH  047%=      5-min Rain = 0
KSP2 180536Z 18013KT 15/04 A2985 RMK A01 T01510038  RH  047%=      5-min Rain = 0
KSP2 180537Z 18014KT 15/04 A2985 RMK A01 T01510038  RH  047%=      5-min Rain = 0
KSP2 180538Z 18013KT 15/04 A2985 RMK A01 T01510038  RH  047%=      5-min Rain = 0
KSP2 180539Z 18012KT 15/04 A2985 RMK A01 T01510038  RH  047%=      5-min Rain = 0
KSP2 180540Z 18014KT 15/04 A2985 RMK A01 T01510038  RH  047%=      5-min Rain = 0
KSP2 180541Z 18014KT 15/04 A2985 RMK A01 T01510038  RH  047%=      5-min Rain = 0
KSP2 180542Z 18014KT 15/04 A2985 RMK A01 T01510038  RH  047%=      5-min Rain = 0
KSP2 180543Z 18013KT 15/04 A2985 RMK A01 T01510037  RH  047%=      5-min Rain = 0
KSP2 180544Z 18012KT 15/04 A2985 RMK A01 T01510038  RH  047%=      5-min Rain = 0
KSP2 180545Z 18011KT 15/04 A2985 RMK A01 T01510038  RH  047%=      5-min Rain = 0
KSP2 180546Z 18014KT 15/04 A2985 RMK A01 T01500038  RH  047%=      5-min Rain = 0
KSP2 180547Z 18014KT 15/04 A2985 RMK A01 T01500038  RH  047%=      5-min Rain = 0
KSP2 180548Z 18014KT 15/04 A2985 RMK A01 T01500037  RH  047%=      5-min Rain = 0
KSP2 180549Z 18014KT 15/04 A2985 RMK A01 T01500037  RH  047%=      5-min Rain = 0
KSP2 180550Z 18013KT 15/04 A2985 RMK A01 T01500038  RH  047%=      5-min Rain = 0
KSP2 180551Z 18012KT 15/04 A2985 RMK A01 T01500038  RH  047%=      5-min Rain = 0
KSP2 180552Z 18012KT 15/04 A2985 RMK A01 T01490038  RH  047%=      5-min Rain = 0
KSP2 180553Z 18012KT 15/04 A2985 RMK A01 T01490038  RH  047%=      5-min Rain = 0
KSP2 180554Z 18014KT 15/04 A2985 RMK A01 T01490038  RH  047%=      5-min Rain = 0
KSP2 180555Z 18013KT 15/04 A2985 RMK A01 T01490038  RH  047%=      5-min Rain = 0
KSP2 180556Z 18012KT 15/04 A2985 RMK A01 T01480038  RH  048%=      5-min Rain = 0
KSP2 180557Z 18013KT 15/04 A2985 RMK A01 T01480038  RH  048%=      5-min Rain = 0
KSP2 180558Z 18012KT 15/04 A2985 RMK A01 T01470038  RH  048%=      5-min Rain = 0
KSP2 180559Z 18013KT 15/04 A2985 RMK A01 T01470038  RH  048%=      5-min Rain = 0
KSP2 180600Z 18014KT 15/04 A2985 RMK A01 T01470038  RH  048%=      5-min Rain = 0
KSP2 180601Z 18013KT 15/04 A2985 RMK A01 T01470038  RH  048%=      5-min Rain = 0
KSP2 180602Z 18012KT 15/04 A2985 RMK A01 T01470038  RH  048%=      5-min Rain = 0
KSP2 180603Z 19014KT 15/04 A2985 RMK A01 T01460038  RH  048%=      5-min Rain = 0
KSP2 180604Z 18015KT 15/04 A2985 RMK A01 T01460038  RH  048%=      5-min Rain = 0
KSP2 180605Z 19013KT 15/04 A2985 RMK A01 T01460037  RH  048%=      5-min Rain = 0
KSP2 180606Z 18015KT 15/04 A2984 RMK A01 T01460038  RH  048%=      5-min Rain = 0
KSP2 180607Z 19013KT 15/04 A2984 RMK A01 T01460038  RH  048%=      5-min Rain = 0
KSP2 180608Z 18014KT 15/04 A2984 RMK A01 T01460038  RH  048%=      5-min Rain = 0
KSP2 180609Z 18015KT 15/04 A2984 RMK A01 T01460038  RH  048%=      5-min Rain = 0
KSP2 180610Z 18013KT 15/04 A2984 RMK A01 T01460037  RH  048%=      5-min Rain = 0
KSP2 180611Z 18013KT 15/04 A2984 RMK A01 T01450037  RH  048%=      5-min Rain = 0
KSP2 180612Z 18016KT 15/04 A2984 RMK A01 T01450037  RH  048%=      5-min Rain = 0
KSP2 180613Z 18015KT 15/04 A2984 RMK A01 T01450036  RH  048%=      5-min Rain = 0
KSP2 180614Z 18015KT 15/04 A2984 RMK A01 T01450037  RH  048%=      5-min Rain = 0
KSP2 180615Z 18013KT 15/04 A2984 RMK A01 T01450037  RH  048%=      5-min Rain = 0
KSP2 180616Z 18013KT 14/04 A2984 RMK A01 T01440037  RH  048%=      5-min Rain = 0
KSP2 180617Z 18013KT 14/04 A2984 RMK A01 T01440037  RH  048%=      5-min Rain = 0
KSP2 180618Z 18014KT 14/04 A2984 RMK A01 T01440037  RH  049%=      5-min Rain = 0
KSP2 180619Z 18014KT 14/04 A2984 RMK A01 T01430037  RH  049%=      5-min Rain = 0
KSP2 180620Z 18014KT 14/04 A2984 RMK A01 T01430036  RH  049%=      5-min Rain = 0
KSP2 180621Z 18014KT 14/04 A2984 RMK A01 T01430036  RH  049%=      5-min Rain = 0
KSP2 180622Z 18014KT 14/04 A2984 RMK A01 T01430036  RH  049%=      5-min Rain = 0
KSP2 180623Z 18013KT 14/04 A2984 RMK A01 T01430036  RH  049%=      5-min Rain = 0
KSP2 180624Z 18012KT 14/04 A2984 RMK A01 T01430037  RH  049%=      5-min Rain = 0
KSP2 180625Z 18013G18KT 14/04 A2984 RMK A01 T01420036  RH  049%=      5-min Rain = 0
KSP2 180626Z 18012KT 14/04 A2984 RMK A01 T01410036  RH  049%=      5-min Rain = 0
KSP2 180627Z 18013KT 14/04 A2984 RMK A01 T01410036  RH  049%=      5-min Rain = 0
KSP2 180628Z 18012KT 14/04 A2984 RMK A01 T01410036  RH  049%=      5-min Rain = 0
KSP2 180629Z 18014KT 14/04 A2984 RMK A01 T01410035  RH  049%=      5-min Rain = 0
KSP2 180630Z 18013KT 14/04 A2984 RMK A01 T01410035  RH  049%=      5-min Rain = 0
KSP2 180631Z 18012KT 14/04 A2984 RMK A01 T01410036  RH  049%=      5-min Rain = 0
KSP2 180632Z 18013KT 14/04 A2984 RMK A01 T01410036  RH  049%=      5-min Rain = 0
KSP2 180633Z 18015KT 14/04 A2984 RMK A01 T01410036  RH  049%=      5-min Rain = 0
KSP2 180634Z 18013KT 14/04 A2984 RMK A01 T01410036  RH  049%=      5-min Rain = 0
KSP2 180635Z 19015KT 14/04 A2984 RMK A01 T01410035  RH  049%=      5-min Rain = 0
KSP2 180636Z 18015KT 14/04 A2984 RMK A01 T01420035  RH  048%=      5-min Rain = 0
KSP2 180637Z 18014KT 14/04 A2984 RMK A01 T01420035  RH  048%=      5-min Rain = 0
KSP2 180638Z 19013KT 14/04 A2984 RMK A01 T01420036  RH  049%=      5-min Rain = 0
KSP2 180639Z 18014KT 14/04 A2984 RMK A01 T01420036  RH  049%=      5-min Rain = 0
KSP2 180640Z 19013KT 14/04 A2984 RMK A01 T01410035  RH  049%=      5-min Rain = 0
KSP2 180641Z 19011KT 14/04 A2984 RMK A01 T01410036  RH  049%=      5-min Rain = 0
KSP2 180642Z 19012KT 14/04 A2984 RMK A01 T01410036  RH  049%=      5-min Rain = 0
KSP2 180643Z 18012KT 14/04 A2984 RMK A01 T01400036  RH  049%=      5-min Rain = 0
KSP2 180644Z 18012KT 14/04 A2984 RMK A01 T01400036  RH  049%=      5-min Rain = 0
KSP2 180645Z 18014KT 14/04 A2984 RMK A01 T01400035  RH  049%=      5-min Rain = 0
KSP2 180646Z 18014KT 14/04 A2984 RMK A01 T01400035  RH  049%=      5-min Rain = 0
KSP2 180647Z 18013KT 14/04 A2984 RMK A01 T01400035  RH  049%=      5-min Rain = 0
KSP2 180648Z 19014KT 14/04 A2984 RMK A01 T01400035  RH  049%=      5-min Rain = 0
KSP2 180649Z 19014KT 14/04 A2984 RMK A01 T01400035  RH  049%=      5-min Rain = 0
KSP2 180650Z 19013KT 14/04 A2984 RMK A01 T01410035  RH  049%=      5-min Rain = 0
KSP2 180651Z 19014KT 14/04 A2984 RMK A01 T01410035  RH  049%=      5-min Rain = 0
KSP2 180652Z 19014KT 14/04 A2984 RMK A01 T01400035  RH  049%=      5-min Rain = 0
KSP2 180653Z 19014KT 14/03 A2984 RMK A01 T01400034  RH  049%=      5-min Rain = 0
KSP2 180654Z 19015KT 14/03 A2984 RMK A01 T01400034  RH  049%=      5-min Rain = 0
KSP2 180655Z 19012KT 14/04 A2984 RMK A01 T01410035  RH  049%=      5-min Rain = 0
KSP2 180656Z 19012KT 14/04 A2984 RMK A01 T01400035  RH  049%=      5-min Rain = 0
KSP2 180657Z 19013KT 14/04 A2984 RMK A01 T01400035  RH  049%=      5-min Rain = 0
KSP2 180658Z 19012KT 14/03 A2984 RMK A01 T01400034  RH  049%=      5-min Rain = 0
KSP2 180659Z 19012KT 14/04 A2984 RMK A01 T01400035  RH  049%=      5-min Rain = 0
KSP2 180700Z 19013KT 14/04 A2984 RMK A01 T01400035  RH  049%=      5-min Rain = 0
KSP2 180701Z 18013KT 14/03 A2984 RMK A01 T01400034  RH  049%=      5-min Rain = 0
KSP2 180702Z 19014KT 14/03 A2984 RMK A01 T01400034  RH  049%=      5-min Rain = 0
KSP2 180703Z 19012KT 14/03 A2984 RMK A01 T01400034  RH  049%=      5-min Rain = 0
KSP2 180704Z 19013KT 14/03 A2984 RMK A01 T01400034  RH  049%=      5-min Rain = 0
KSP2 180705Z 19014KT 14/03 A2984 RMK A01 T01400033  RH  049%=      5-min Rain = 0
KSP2 180706Z 18014KT 14/03 A2984 RMK A01 T01400033  RH  048%=      5-min Rain = 0
KSP2 180707Z 19012KT 14/03 A2984 RMK A01 T01400033  RH  048%=      5-min Rain = 0
KSP2 180708Z 18014KT 14/03 A2984 RMK A01 T01400033  RH  048%=      5-min Rain = 0
KSP2 180709Z 19015KT 14/03 A2984 RMK A01 T01400033  RH  048%=      5-min Rain = 0
KSP2 180710Z 19013KT 14/03 A2984 RMK A01 T01400032  RH  048%=      5-min Rain = 0
KSP2 180711Z 18015KT 14/03 A2984 RMK A01 T01400032  RH  048%=      5-min Rain = 0
KSP2 180712Z 19011KT 14/03 A2984 RMK A01 T01400032  RH  048%=      5-min Rain = 0
KSP2 180713Z 19012KT 14/03 A2984 RMK A01 T01400032  RH  048%=      5-min Rain = 0
KSP2 180714Z 18013KT 14/03 A2984 RMK A01 T01390032  RH  048%=      5-min Rain = 0
KSP2 180715Z 19012KT 14/03 A2984 RMK A01 T01390033  RH  048%=      5-min Rain = 0
KSP2 180716Z 19011KT 14/03 A2984 RMK A01 T01390032  RH  049%=      5-min Rain = 0
KSP2 180717Z 19012KT 14/03 A2984 RMK A01 T01380032  RH  049%=      5-min Rain = 0
KSP2 180718Z 19012KT 14/03 A2984 RMK A01 T01380032  RH  049%=      5-min Rain = 0
KSP2 180719Z 19013KT 14/03 A2984 RMK A01 T01380032  RH  049%=      5-min Rain = 0
KSP2 180720Z 19013KT 14/03 A2984 RMK A01 T01380032  RH  049%=      5-min Rain = 0
KSP2 180721Z 19012KT 14/03 A2984 RMK A01 T01370032  RH  049%=      5-min Rain = 0
KSP2 180722Z 19013KT 14/03 A2984 RMK A01 T01370032  RH  049%=      5-min Rain = 0
KSP2 180723Z 19011KT 14/03 A2984 RMK A01 T01370032  RH  049%=      5-min Rain = 0
KSP2 180724Z 19011KT 14/03 A2984 RMK A01 T01370032  RH  049%=      5-min Rain = 0
KSP2 180725Z 19013KT 14/03 A2984 RMK A01 T01360032  RH  049%=      5-min Rain = 0
KSP2 180726Z 19012KT 14/03 A2984 RMK A01 T01360031  RH  049%=      5-min Rain = 0
KSP2 180727Z 19013KT 14/03 A2984 RMK A01 T01360031  RH  049%=      5-min Rain = 0
KSP2 180728Z 19010KT 14/03 A2984 RMK A01 T01350031  RH  049%=      5-min Rain = 0
KSP2 180729Z 19012KT 14/03 A2983 RMK A01 T01360031  RH  049%=      5-min Rain = 0
KSP2 180730Z 19014KT 14/03 A2983 RMK A01 T01350031  RH  049%=      5-min Rain = 0
KSP2 180731Z 19012KT 14/03 A2983 RMK A01 T01350030  RH  049%=      5-min Rain = 0
KSP2 180732Z 19012KT 14/03 A2983 RMK A01 T01360031  RH  049%=      5-min Rain = 0
KSP2 180733Z 19012KT 14/03 A2983 RMK A01 T01350031  RH  049%=      5-min Rain = 0
KSP2 180734Z 19012KT 14/03 A2983 RMK A01 T01350031  RH  049%=      5-min Rain = 0
KSP2 180735Z 19012KT 14/03 A2983 RMK A01 T01350031  RH  049%=      5-min Rain = 0
KSP2 180736Z 19013KT 14/03 A2983 RMK A01 T01350030  RH  049%=      5-min Rain = 0
KSP2 180737Z 19012KT 14/03 A2983 RMK A01 T01350030  RH  049%=      5-min Rain = 0
KSP2 180738Z 19014KT 14/03 A2983 RMK A01 T01350030  RH  049%=      5-min Rain = 0
KSP2 180739Z 19012KT 14/03 A2983 RMK A01 T01350029  RH  049%=      5-min Rain = 0
KSP2 180740Z 19013KT 14/03 A2983 RMK A01 T01350030  RH  049%=      5-min Rain = 0
KSP2 180741Z 19013G18KT 14/03 A2983 RMK A01 T01350030  RH  049%=      5-min Rain = 0
KSP2 180742Z 19013KT 13/03 A2983 RMK A01 T01340029  RH  049%=      5-min Rain = 0
KSP2 180743Z 19012KT 13/03 A2983 RMK A01 T01340029  RH  049%=      5-min Rain = 0
KSP2 180744Z 19013KT 14/03 A2983 RMK A01 T01350030  RH  049%=      5-min Rain = 0
KSP2 180745Z 19012KT 13/03 A2983 RMK A01 T01340029  RH  049%=      5-min Rain = 0
KSP2 180746Z 19013KT 13/03 A2983 RMK A01 T01340029  RH  049%=      5-min Rain = 0
KSP2 180747Z 19011KT 13/03 A2983 RMK A01 T01340029  RH  049%=      5-min Rain = 0
KSP2 180748Z 19012KT 13/03 A2983 RMK A01 T01340029  RH  049%=      5-min Rain = 0
KSP2 180749Z 19013KT 13/03 A2983 RMK A01 T01340029  RH  049%=      5-min Rain = 0
KSP2 180750Z 19012KT 13/03 A2983 RMK A01 T01330029  RH  049%=      5-min Rain = 0
KSP2 180751Z 19012KT 13/03 A2983 RMK A01 T01330029  RH  049%=      5-min Rain = 0
KSP2 180752Z 19012KT 13/03 A2983 RMK A01 T01330029  RH  049%=      5-min Rain = 0
KSP2 180753Z 19013KT 13/03 A2983 RMK A01 T01320029  RH  049%=      5-min Rain = 0
KSP2 180754Z 20010KT 13/03 A2983 RMK A01 T01320029  RH  049%=      5-min Rain = 0
KSP2 180755Z 19011KT 13/03 A2983 RMK A01 T01320029  RH  050%=      5-min Rain = 0
KSP2 180756Z 19013KT 13/03 A2983 RMK A01 T01320029  RH  050%=      5-min Rain = 0
KSP2 180757Z 19013KT 13/03 A2983 RMK A01 T01320028  RH  049%=      5-min Rain = 0
KSP2 180758Z 19014KT 13/03 A2983 RMK A01 T01330028  RH  049%=      5-min Rain = 0
KSP2 180759Z 19012KT 13/03 A2983 RMK A01 T01330028  RH  049%=      5-min Rain = 0
KSP2 180800Z 19012KT 13/03 A2983 RMK A01 T01330028  RH  049%=      5-min Rain = 0
KSP2 180801Z 19011KT 13/03 A2983 RMK A01 T01330028  RH  049%=      5-min Rain = 0
KSP2 180802Z 19012KT 13/03 A2983 RMK A01 T01330028  RH  049%=      5-min Rain = 0
KSP2 180803Z 19011KT 13/03 A2983 RMK A01 T01320028  RH  049%=      5-min Rain = 0
KSP2 180804Z 19011KT 13/03 A2983 RMK A01 T01320029  RH  049%=      5-min Rain = 0
KSP2 180805Z 19012KT 13/03 A2983 RMK A01 T01320028  RH  049%=      5-min Rain = 0
KSP2 180806Z 19012KT 13/03 A2983 RMK A01 T01320028  RH  049%=      5-min Rain = 0
KSP2 180807Z 19012KT 13/03 A2983 RMK A01 T01330029  RH  049%=      5-min Rain = 0
KSP2 180808Z 19012KT 13/03 A2983 RMK A01 T01320028  RH  049%=      5-min Rain = 0
KSP2 180809Z 19013G18KT 13/03 A2983 RMK A01 T01330029  RH  049%=      5-min Rain = 0
KSP2 180810Z 19013KT 13/03 A2982 RMK A01 T01330028  RH  049%=      5-min Rain = 0
KSP2 180811Z 19013KT 13/03 A2982 RMK A01 T01340029  RH  049%=      5-min Rain = 0
KSP2 180812Z 19014KT 13/03 A2983 RMK A01 T01340029  RH  049%=      5-min Rain = 0
KSP2 180813Z 19012KT 13/03 A2982 RMK A01 T01340029  RH  049%=      5-min Rain = 0
KSP2 180814Z 19014KT 13/03 A2983 RMK A01 T01340029  RH  049%=      5-min Rain = 0
KSP2 180815Z 19012KT 13/03 A2983 RMK A01 T01340029  RH  049%=      5-min Rain = 0
KSP2 180816Z 19012KT 13/03 A2983 RMK A01 T01340030  RH  049%=      5-min Rain = 0
KSP2 180817Z 19011KT 13/03 A2983 RMK A01 T01330030  RH  049%=      5-min Rain = 0
KSP2 180818Z 19013KT 13/03 A2983 RMK A01 T01330030  RH  050%=      5-min Rain = 0
KSP2 180819Z 19012KT 13/03 A2983 RMK A01 T01320030  RH  050%=      5-min Rain = 0
KSP2 180820Z 19014KT 13/03 A2983 RMK A01 T01330029  RH  050%=      5-min Rain = 0
KSP2 180821Z 19013KT 13/03 A2983 RMK A01 T01330030  RH  050%=      5-min Rain = 0
KSP2 180822Z 19014KT 13/03 A2983 RMK A01 T01340030  RH  050%=      5-min Rain = 0
KSP2 180823Z 19013KT 13/03 A2983 RMK A01 T01330030  RH  050%=      5-min Rain = 0
KSP2 180824Z 19015KT 13/03 A2983 RMK A01 T01330031  RH  050%=      5-min Rain = 0
KSP2 180825Z 19012KT 13/03 A2983 RMK A01 T01330031  RH  050%=      5-min Rain = 0
KSP2 180826Z 19012G17KT 13/03 A2983 RMK A01 T01330031  RH  050%=      5-min Rain = 0
KSP2 180827Z 19013G18KT 13/03 A2982 RMK A01 T01330031  RH  050%=      5-min Rain = 0
KSP2 180828Z 19014KT 13/03 A2982 RMK A01 T01320031  RH  050%=      5-min Rain = 0
KSP2 180829Z 19011G17KT 13/03 A2982 RMK A01 T01330031  RH  050%=      5-min Rain = 0
KSP2 180830Z 19014KT 13/03 A2982 RMK A01 T01330032  RH  050%=      5-min Rain = 0
KSP2 180831Z 19014KT 13/03 A2982 RMK A01 T01330032  RH  050%=      5-min Rain = 0
KSP2 180832Z 19013KT 13/03 A2982 RMK A01 T01320032  RH  050%=      5-min Rain = 0
KSP2 180833Z 19012KT 13/03 A2982 RMK A01 T01320031  RH  051%=      5-min Rain = 0
KSP2 180834Z 19012KT 13/03 A2982 RMK A01 T01320032  RH  051%=      5-min Rain = 0
KSP2 180835Z 19011KT 13/03 A2982 RMK A01 T01320032  RH  051%=      5-min Rain = 0
KSP2 180836Z 19012KT 13/03 A2982 RMK A01 T01310032  RH  051%=      5-min Rain = 0
KSP2 180837Z 20012KT 13/03 A2982 RMK A01 T01310033  RH  051%=      5-min Rain = 0
KSP2 180838Z 19013KT 13/03 A2982 RMK A01 T01300032  RH  051%=      5-min Rain = 0
KSP2 180839Z 19013KT 13/03 A2982 RMK A01 T01310033  RH  051%=      5-min Rain = 0
KSP2 180840Z 20013KT 13/03 A2982 RMK A01 T01310033  RH  051%=      5-min Rain = 0
KSP2 180841Z 19012KT 13/03 A2982 RMK A01 T01300033  RH  052%=      5-min Rain = 0
KSP2 180842Z 20013KT 13/03 A2982 RMK A01 T01300034  RH  052%=      5-min Rain = 0
KSP2 180843Z 19012KT 13/03 A2982 RMK A01 T01300034  RH  052%=      5-min Rain = 0
KSP2 180844Z 20011G16KT 13/03 A2982 RMK A01 T01300034  RH  052%=      5-min Rain = 0
KSP2 180845Z 19010KT 13/04 A2982 RMK A01 T01300035  RH  053%=      5-min Rain = 0
KSP2 180846Z 19012KT 13/04 A2982 RMK A01 T01290035  RH  053%=      5-min Rain = 0
KSP2 180847Z 20012KT 13/04 A2982 RMK A01 T01290036  RH  053%=      5-min Rain = 0
KSP2 180848Z 19012KT 13/04 A2982 RMK A01 T01290036  RH  053%=      5-min Rain = 0
KSP2 180849Z 20010KT 13/04 A2982 RMK A01 T01290036  RH  053%=      5-min Rain = 0
KSP2 180850Z 20010KT 13/04 A2982 RMK A01 T01290036  RH  053%=      5-min Rain = 0
KSP2 180851Z 19011KT 13/04 A2982 RMK A01 T01290037  RH  054%=      5-min Rain = 0
KSP2 180852Z 19011KT 13/04 A2982 RMK A01 T01280037  RH  054%=      5-min Rain = 0
KSP2 180853Z 19011KT 13/04 A2982 RMK A01 T01280037  RH  054%=      5-min Rain = 0
KSP2 180854Z 19012KT 13/04 A2982 RMK A01 T01280037  RH  054%=      5-min Rain = 0
KSP2 180855Z 20011KT 13/04 A2982 RMK A01 T01280037  RH  054%=      5-min Rain = 0
KSP2 180856Z 19011KT 13/04 A2982 RMK A01 T01280038  RH  054%=      5-min Rain = 0
KSP2 180857Z 19011KT 13/04 A2982 RMK A01 T01270037  RH  054%=      5-min Rain = 0
KSP2 180858Z 19011KT 13/04 A2982 RMK A01 T01270037  RH  055%=      5-min Rain = 0
KSP2 180859Z 19011KT 13/04 A2982 RMK A01 T01260038  RH  055%=      5-min Rain = 0
KSP2 180900Z 19011KT 13/04 A2982 RMK A01 T01260038  RH  055%=      5-min Rain = 0
KSP2 180901Z 19011KT 13/04 A2982 RMK A01 T01260038  RH  055%=      5-min Rain = 0
KSP2 180902Z 19010KT 13/04 A2981 RMK A01 T01250039  RH  056%=      5-min Rain = 0
KSP2 180903Z 19011KT 13/04 A2981 RMK A01 T01250039  RH  056%=      5-min Rain = 0
KSP2 180904Z 19011KT 13/04 A2981 RMK A01 T01250039  RH  056%=      5-min Rain = 0
KSP2 180905Z 20011KT 13/04 A2981 RMK A01 T01250039  RH  056%=      5-min Rain = 0
KSP2 180906Z 20012KT 13/04 A2981 RMK A01 T01250039  RH  056%=      5-min Rain = 0
KSP2 180907Z 20011KT 13/04 A2981 RMK A01 T01250039  RH  056%=      5-min Rain = 0
KSP2 180908Z 20010KT 13/04 A2981 RMK A01 T01250039  RH  056%=      5-min Rain = 0
KSP2 180909Z 19010KT 12/04 A2981 RMK A01 T01240040  RH  056%=      5-min Rain = 0
KSP2 180910Z 19010KT 12/04 A2981 RMK A01 T01240040  RH  057%=      5-min Rain = 0
KSP2 180911Z 19011KT 12/04 A2981 RMK A01 T01230041  RH  057%=      5-min Rain = 0
KSP2 180912Z 19011KT 12/04 A2981 RMK A01 T01230041  RH  057%=      5-min Rain = 0
KSP2 180913Z 19011KT 12/04 A2981 RMK A01 T01230041  RH  057%=      5-min Rain = 0
KSP2 180914Z 19010KT 12/04 A2981 RMK A01 T01230041  RH  057%=      5-min Rain = 0
KSP2 180915Z 19010KT 12/04 A2981 RMK A01 T01230041  RH  057%=      5-min Rain = 0
KSP2 180916Z 20011KT 12/04 A2981 RMK A01 T01230042  RH  058%=      5-min Rain = 0
KSP2 180917Z 19010KT 12/04 A2981 RMK A01 T01230042  RH  058%=      5-min Rain = 0
KSP2 180918Z 20010KT 12/04 A2981 RMK A01 T01230042  RH  058%=      5-min Rain = 0
KSP2 180919Z 19010KT 12/04 A2981 RMK A01 T01230042  RH  058%=      5-min Rain = 0
KSP2 180920Z 19011KT 12/04 A2981 RMK A01 T01230042  RH  058%=      5-min Rain = 0
KSP2 180921Z 19011KT 12/04 A2981 RMK A01 T01230042  RH  058%=      5-min Rain = 0
KSP2 180922Z 19011KT 12/04 A2981 RMK A01 T01230043  RH  058%=      5-min Rain = 0
KSP2 180923Z 19009KT 12/04 A2981 RMK A01 T01230043  RH  058%=      5-min Rain = 0
KSP2 180924Z 20009KT 12/04 A2981 RMK A01 T01220043  RH  058%=      5-min Rain = 0
KSP2 180925Z 19010KT 12/04 A2981 RMK A01 T01220044  RH  059%=      5-min Rain = 0
KSP2 180926Z 19008KT 12/04 A298 RMK A01 T01220044  RH  059%=      5-min Rain = 0
KSP2 180927Z 19011KT 12/04 A298 RMK A01 T01220044  RH  059%=      5-min Rain = 0
KSP2 180928Z 19010KT 12/04 A298 RMK A01 T01220044  RH  059%=      5-min Rain = 0
KSP2 180929Z 20010KT 12/04 A298 RMK A01 T01210044  RH  059%=      5-min Rain = 0
KSP2 180930Z 19009KT 12/04 A298 RMK A01 T01220044  RH  059%=      5-min Rain = 0
KSP2 180931Z 20010KT 12/05 A298 RMK A01 T01210045  RH  059%=      5-min Rain = 0
KSP2 180932Z 19010KT 12/05 A298 RMK A01 T01210045  RH  060%=      5-min Rain = 0
KSP2 180933Z 19009KT 12/05 A298 RMK A01 T01210046  RH  060%=      5-min Rain = 0
KSP2 180934Z 20010KT 12/05 A298 RMK A01 T01220046  RH  060%=      5-min Rain = 0
KSP2 180935Z 19010KT 12/05 A298 RMK A01 T01210047  RH  060%=      5-min Rain = 0
KSP2 180936Z 20009KT 12/05 A298 RMK A01 T01220047  RH  060%=      5-min Rain = 0
KSP2 180937Z 19010KT 12/05 A298 RMK A01 T01220048  RH  060%=      5-min Rain = 0
KSP2 180938Z 19009KT 12/05 A298 RMK A01 T01210048  RH  061%=      5-min Rain = 0
KSP2 180939Z 19009KT 12/05 A298 RMK A01 T01220049  RH  061%=      5-min Rain = 0
KSP2 180940Z 19009KT 12/05 A298 RMK A01 T01220049  RH  061%=      5-min Rain = 0
KSP2 180941Z 19009KT 12/05 A298 RMK A01 T01220050  RH  061%=      5-min Rain = 0
KSP2 180942Z 19011KT 12/05 A298 RMK A01 T01220051  RH  062%=      5-min Rain = 0
KSP2 180943Z 19009KT 12/05 A298 RMK A01 T01220050  RH  062%=      5-min Rain = 0
KSP2 180944Z 19009KT 12/05 A298 RMK A01 T01220051  RH  062%=      5-min Rain = 0
KSP2 180945Z 19011KT 12/05 A298 RMK A01 T01220051  RH  062%=      5-min Rain = 0
KSP2 180946Z 19008KT 12/05 A298 RMK A01 T01220051  RH  062%=      5-min Rain = 0
KSP2 180947Z 19010KT 12/05 A298 RMK A01 T01220051  RH  062%=      5-min Rain = 0
KSP2 180948Z 19010KT 12/05 A298 RMK A01 T01220050  RH  062%=      5-min Rain = 0
KSP2 180949Z 19010KT 12/05 A298 RMK A01 T01220051  RH  062%=      5-min Rain = 0
KSP2 180950Z 19010KT 12/05 A298 RMK A01 T01210051  RH  062%=      5-min Rain = 0
KSP2 180951Z 19009KT 12/05 A298 RMK A01 T01200050  RH  062%=      5-min Rain = 0
KSP2 180952Z 19010KT 12/05 A298 RMK A01 T01200050  RH  062%=      5-min Rain = 0
KSP2 180953Z 19009KT 12/05 A298 RMK A01 T01200051  RH  062%=      5-min Rain = 0
KSP2 180954Z 20009KT 12/05 A298 RMK A01 T01200051  RH  063%=      5-min Rain = 0
KSP2 180955Z 20009KT 12/05 A298 RMK A01 T01200051  RH  063%=      5-min Rain = 0
KSP2 180956Z 20010KT 12/05 A298 RMK A01 T01190052  RH  063%=      5-min Rain = 0
KSP2 180957Z 19009KT 12/05 A298 RMK A01 T01190052  RH  063%=      5-min Rain = 0
KSP2 180958Z 19009KT 12/05 A2979 RMK A01 T01190052  RH  063%=      5-min Rain = 0
KSP2 180959Z 19009KT 12/05 A2979 RMK A01 T01190052  RH  064%=      5-min Rain = 0
KSP2 181000Z 19009KT 12/05 A2979 RMK A01 T01190053  RH  064%=      5-min Rain = 0
KSP2 181001Z 20009KT 12/05 A2979 RMK A01 T01190053  RH  064%=      5-min Rain = 0
KSP2 181002Z 19008KT 12/05 A2979 RMK A01 T01190053  RH  064%=      5-min Rain = 0
KSP2 181003Z 20008KT 12/05 A298 RMK A01 T01190053  RH  064%=      5-min Rain = 0
KSP2 181004Z 20009KT 12/05 A298 RMK A01 T01180053  RH  064%=      5-min Rain = 0
KSP2 181005Z 19010KT 12/05 A298 RMK A01 T01180053  RH  064%=      5-min Rain = 0
KSP2 181006Z 19010KT 12/05 A298 RMK A01 T01180052  RH  064%=      5-min Rain = 0
KSP2 181007Z 19009KT 12/05 A298 RMK A01 T01180053  RH  064%=      5-min Rain = 0
KSP2 181008Z 19009KT 12/05 A298 RMK A01 T01180052  RH  064%=      5-min Rain = 0
KSP2 181009Z 20010KT 12/05 A298 RMK A01 T01180052  RH  064%=      5-min Rain = 0
KSP2 181010Z 20010KT 12/05 A298 RMK A01 T01180053  RH  064%=      5-min Rain = 0
KSP2 181011Z 20010KT 12/05 A298 RMK A01 T01180053  RH  064%=      5-min Rain = 0
KSP2 181012Z 20009KT 12/05 A298 RMK A01 T01170053  RH  065%=      5-min Rain = 0
KSP2 181013Z 20011KT 12/05 A298 RMK A01 T01170053  RH  065%=      5-min Rain = 0
KSP2 181014Z 20010KT 12/05 A298 RMK A01 T01170053  RH  065%=      5-min Rain = 0
KSP2 181015Z 20010KT 12/05 A2979 RMK A01 T01170053  RH  065%=      5-min Rain = 0
KSP2 181016Z 20010KT 12/05 A2979 RMK A01 T01170053  RH  065%=      5-min Rain = 0
KSP2 181017Z 19011KT 12/05 A2979 RMK A01 T01170053  RH  065%=      5-min Rain = 0
KSP2 181018Z 19010KT 12/05 A2979 RMK A01 T01170054  RH  065%=      5-min Rain = 0
KSP2 181019Z 20010KT 12/05 A2979 RMK A01 T01170054  RH  065%=      5-min Rain = 0
KSP2 181020Z 20010KT 12/06 A2979 RMK A01 T01170055  RH  065%=      5-min Rain = 0
KSP2 181021Z 20010KT 12/06 A2979 RMK A01 T01170055  RH  066%=      5-min Rain = 0
KSP2 181022Z 20011KT 12/06 A2979 RMK A01 T01170055  RH  066%=      5-min Rain = 0
KSP2 181023Z 20010KT 12/06 A2979 RMK A01 T01160055  RH  066%=      5-min Rain = 0
KSP2 181024Z 20010KT 12/06 A2979 RMK A01 T01160055  RH  066%=      5-min Rain = 0
KSP2 181025Z 20010KT 12/06 A2979 RMK A01 T01160055  RH  066%=      5-min Rain = 0
KSP2 181026Z 19008KT 12/06 A2979 RMK A01 T01160056  RH  066%=      5-min Rain = 0
KSP2 181027Z 20010KT 12/06 A2979 RMK A01 T01150056  RH  067%=      5-min Rain = 0
KSP2 181028Z 20009KT 12/06 A2979 RMK A01 T01150056  RH  067%=      5-min Rain = 0
KSP2 181029Z 20010KT 11/06 A2979 RMK A01 T01140056  RH  067%=      5-min Rain = 0
KSP2 181030Z 21010KT 11/06 A2979 RMK A01 T01140056  RH  067%=      5-min Rain = 0
KSP2 181031Z 21010KT 11/06 A2979 RMK A01 T01140056  RH  068%=      5-min Rain = 0
KSP2 181032Z 20009KT 11/06 A298 RMK A01 T01140056  RH  067%=      5-min Rain = 0
KSP2 181033Z 20009KT 11/06 A298 RMK A01 T01140056  RH  068%=      5-min Rain = 0
KSP2 181034Z 20009KT 11/06 A298 RMK A01 T01130056  RH  068%=      5-min Rain = 0
KSP2 181035Z 21010KT 11/06 A298 RMK A01 T01130056  RH  068%=      5-min Rain = 0
KSP2 181036Z 21010KT 11/06 A298 RMK A01 T01130056  RH  068%=      5-min Rain = 0
KSP2 181037Z 21010KT 11/06 A298 RMK A01 T01130057  RH  068%=      5-min Rain = 0
KSP2 181038Z 20009KT 11/06 A298 RMK A01 T01130057  RH  068%=      5-min Rain = 0
KSP2 181039Z 20010KT 11/06 A298 RMK A01 T01140057  RH  068%=      5-min Rain = 0
KSP2 181040Z 20010KT 12/06 A298 RMK A01 T01150058  RH  068%=      5-min Rain = 0
KSP2 181041Z 21010KT 12/06 A298 RMK A01 T01150058  RH  068%=      5-min Rain = 0
KSP2 181042Z 20010KT 12/06 A298 RMK A01 T01150058  RH  068%=      5-min Rain = 0
KSP2 181043Z 20010KT 12/06 A298 RMK A01 T01150058  RH  068%=      5-min Rain = 0
KSP2 181044Z 20009KT 12/06 A298 RMK A01 T01150058  RH  068%=      5-min Rain = 0
KSP2 181045Z 20009KT 12/06 A298 RMK A01 T01150058  RH  068%=      5-min Rain = 0
KSP2 181046Z 20009KT 12/06 A298 RMK A01 T01150058  RH  068%=      5-min Rain = 0
KSP2 181047Z 20008KT 11/06 A298 RMK A01 T01140058  RH  068%=      5-min Rain = 0
KSP2 181048Z 20009KT 11/06 A298 RMK A01 T01140058  RH  069%=      5-min Rain = 0
KSP2 181049Z 20009KT 11/06 A298 RMK A01 T01130058  RH  069%=      5-min Rain = 0
KSP2 181050Z 20009KT 11/06 A298 RMK A01 T01130059  RH  069%=      5-min Rain = 0
KSP2 181051Z 20008KT 11/06 A298 RMK A01 T01120059  RH  069%=      5-min Rain = 0
KSP2 181052Z 20009KT 11/06 A298 RMK A01 T01120059  RH  070%=      5-min Rain = 0
KSP2 181053Z 20008KT 11/06 A298 RMK A01 T01120059  RH  070%=      5-min Rain = 0
KSP2 181054Z 20008KT 11/06 A298 RMK A01 T01120060  RH  070%=      5-min Rain = 0
KSP2 181055Z 20008KT 11/06 A298 RMK A01 T01120060  RH  070%=      5-min Rain = 0
KSP2 181056Z 20009KT 11/06 A298 RMK A01 T01120060  RH  070%=      5-min Rain = 0
KSP2 181057Z 21009KT 11/06 A298 RMK A01 T01110060  RH  071%=      5-min Rain = 0
KSP2 181058Z 21008KT 11/06 A298 RMK A01 T01110060  RH  071%=      5-min Rain = 0
KSP2 181059Z 21009KT 11/06 A298 RMK A01 T01120061  RH  071%=      5-min Rain = 0
KSP2 181100Z 20009KT 11/06 A298 RMK A01 T01120061  RH  071%=      5-min Rain = 0
KSP2 181101Z 20010KT 11/06 A298 RMK A01 T01120062  RH  071%=      5-min Rain = 0
KSP2 181102Z 21010KT 11/06 A298 RMK A01 T01130063  RH  071%=      5-min Rain = 0
KSP2 181103Z 20010KT 11/06 A298 RMK A01 T01140063  RH  071%=      5-min Rain = 0
KSP2 181104Z 20010KT 11/06 A298 RMK A01 T01140064  RH  071%=      5-min Rain = 0
KSP2 181105Z 20009KT 12/07 A298 RMK A01 T01160066  RH  071%=      5-min Rain = 0
KSP2 181106Z 20009KT 12/07 A298 RMK A01 T01160066  RH  071%=      5-min Rain = 0
KSP2 181107Z 20010KT 12/07 A298 RMK A01 T01160067  RH  071%=      5-min Rain = 0
KSP2 181108Z 20011KT 12/07 A298 RMK A01 T01170067  RH  071%=      5-min Rain = 0
KSP2 181109Z 20011KT 12/07 A298 RMK A01 T01170067  RH  071%=      5-min Rain = 0
KSP2 181110Z 20010KT 12/07 A298 RMK A01 T01170067  RH  071%=      5-min Rain = 0
KSP2 181111Z 20009KT 12/07 A298 RMK A01 T01180068  RH  071%=      5-min Rain = 0
KSP2 181112Z 20010KT 12/07 A298 RMK A01 T01170068  RH  072%=      5-min Rain = 0
KSP2 181113Z 20010KT 12/07 A298 RMK A01 T01170068  RH  072%=      5-min Rain = 0
KSP2 181114Z 20010KT 12/07 A298 RMK A01 T01170068  RH  072%=      5-min Rain = 0
KSP2 181115Z 20010KT 12/07 A298 RMK A01 T01160068  RH  072%=      5-min Rain = 0
KSP2 181116Z 20009KT 12/07 A298 RMK A01 T01160068  RH  072%=      5-min Rain = 0
KSP2 181117Z 20009KT 12/07 A298 RMK A01 T01160068  RH  072%=      5-min Rain = 0
KSP2 181118Z 20009KT 12/07 A298 RMK A01 T01160068  RH  073%=      5-min Rain = 0
KSP2 181119Z 20010KT 12/07 A298 RMK A01 T01150068  RH  073%=      5-min Rain = 0
KSP2 181120Z 20010KT 12/07 A298 RMK A01 T01150069  RH  073%=      5-min Rain = 0
KSP2 181121Z 20009KT 12/07 A298 RMK A01 T01150069  RH  073%=      5-min Rain = 0
KSP2 181122Z 20010KT 12/07 A298 RMK A01 T01160069  RH  073%=      5-min Rain = 0
KSP2 181123Z 20010KT 12/07 A298 RMK A01 T01150070  RH  073%=      5-min Rain = 0
KSP2 181124Z 20010KT 12/07 A298 RMK A01 T01160070  RH  074%=      5-min Rain = 0
KSP2 181125Z 20009KT 12/07 A298 RMK A01 T01160070  RH  074%=      5-min Rain = 0
KSP2 181126Z 20010KT 12/07 A298 RMK A01 T01160070  RH  074%=      5-min Rain = 0
KSP2 181127Z 20009KT 12/07 A298 RMK A01 T01150070  RH  074%=      5-min Rain = 0
KSP2 181128Z 20009KT 12/07 A298 RMK A01 T01150070  RH  074%=      5-min Rain = 0
KSP2 181129Z 20009KT 11/07 A298 RMK A01 T01140070  RH  074%=      5-min Rain = 0
KSP2 181130Z 20009KT 11/07 A298 RMK A01 T01130070  RH  075%=      5-min Rain = 0
KSP2 181131Z 20008KT 11/07 A298 RMK A01 T01120070  RH  075%=      5-min Rain = 0
KSP2 181132Z 21009KT 11/07 A298 RMK A01 T01120071  RH  076%=      5-min Rain = 0
KSP2 181133Z 21009KT 11/07 A298 RMK A01 T01130073  RH  076%=      5-min Rain = 0
KSP2 181134Z 20008KT 11/07 A298 RMK A01 T01130073  RH  076%=      5-min Rain = 0
KSP2 181135Z 21010KT 11/07 A298 RMK A01 T01140074  RH  076%=      5-min Rain = 0
KSP2 181136Z 20010KT 12/08 A298 RMK A01 T01150075  RH  077%=      5-min Rain = 0
KSP2 181137Z 20009KT 12/08 A298 RMK A01 T01160076  RH  077%=      5-min Rain = 0
KSP2 181138Z 20010KT 12/08 A298 RMK A01 T01170077  RH  077%=      5-min Rain = 0
KSP2 181139Z 20010KT 12/08 A298 RMK A01 T01170078  RH  077%=      5-min Rain = 0
KSP2 181140Z 20011KT 12/08 A298 RMK A01 T01180079  RH  077%=      5-min Rain = 0
KSP2 181141Z 21011KT 12/08 A298 RMK A01 T01190079  RH  077%=      5-min Rain = 0
KSP2 181142Z 20009KT 12/08 A298 RMK A01 T01200080  RH  077%=      5-min Rain = 0
KSP2 181143Z 21011KT 12/08 A298 RMK A01 T01200081  RH  077%=      5-min Rain = 0
KSP2 181144Z 20010KT 12/08 A298 RMK A01 T01210082  RH  077%=      5-min Rain = 0
KSP2 181145Z 20010KT 12/08 A298 RMK A01 T01220082  RH  076%=      5-min Rain = 0
KSP2 181146Z 20010KT 12/08 A298 RMK A01 T01220082  RH  077%=      5-min Rain = 0
KSP2 181147Z 20010KT 12/08 A298 RMK A01 T01220083  RH  077%=      5-min Rain = 0
KSP2 181148Z 20010KT 12/08 A298 RMK A01 T01220083  RH  077%=      5-min Rain = 0
KSP2 181149Z 20011KT 12/08 A298 RMK A01 T01220083  RH  077%=      5-min Rain = 0
KSP2 181150Z 20010KT 12/08 A298 RMK A01 T01230084  RH  077%=      5-min Rain = 0
KSP2 181151Z 20011KT 12/08 A298 RMK A01 T01230083  RH  077%=      5-min Rain = 0
KSP2 181152Z 20010KT 12/08 A298 RMK A01 T01230083  RH  077%=      5-min Rain = 0
KSP2 181153Z 20011KT 12/08 A298 RMK A01 T01230083  RH  076%=      5-min Rain = 0
KSP2 181154Z 20010KT 12/08 A298 RMK A01 T01230082  RH  076%=      5-min Rain = 0
KSP2 181155Z 19010KT 12/08 A298 RMK A01 T01220082  RH  076%=      5-min Rain = 0
KSP2 181156Z 20010KT 12/08 A298 RMK A01 T01210082  RH  077%=      5-min Rain = 0
KSP2 181157Z 20008KT 12/08 A298 RMK A01 T01210082  RH  077%=      5-min Rain = 0
KSP2 181158Z 19010KT 12/08 A298 RMK A01 T01200082  RH  078%=      5-min Rain = 0
KSP2 181159Z 20009KT 12/08 A298 RMK A01 T01200083  RH  078%=      5-min Rain = 0
KSP2 181200Z 19010KT 12/08 A298 RMK A01 T01200082  RH  078%=      5-min Rain = 0
KSP2 181201Z 19010KT 12/08 A298 RMK A01 T01200082  RH  078%=      5-min Rain = 0
KSP2 181202Z 20010KT 12/08 A298 RMK A01 T01190081  RH  077%=      5-min Rain = 0
KSP2 181203Z 20011KT 12/08 A298 RMK A01 T01190080  RH  077%=      5-min Rain = 0
KSP2 181204Z 20010KT 12/08 A298 RMK A01 T01180080  RH  077%=      5-min Rain = 0
KSP2 181205Z 20010KT 12/08 A298 RMK A01 T01180079  RH  077%=      5-min Rain = 0
KSP2 181206Z 20011KT 12/08 A298 RMK A01 T01170079  RH  077%=      5-min Rain = 0
KSP2 181207Z 20010KT 12/08 A298 RMK A01 T01170079  RH  077%=      5-min Rain = 0
KSP2 181208Z 20009KT 12/08 A298 RMK A01 T01160079  RH  078%=      5-min Rain = 0
KSP2 181209Z 20009KT 12/08 A298 RMK A01 T01150078  RH  078%=      5-min Rain = 0
KSP2 181210Z 20010KT 12/08 A298 RMK A01 T01150078  RH  078%=      5-min Rain = 0
KSP2 181211Z 20009KT 11/08 A298 RMK A01 T01140079  RH  079%=      5-min Rain = 0
KSP2 181212Z 20009KT 11/08 A298 RMK A01 T01140078  RH  079%=      5-min Rain = 0
KSP2 181213Z 20009KT 11/08 A298 RMK A01 T01140078  RH  079%=      5-min Rain = 0
KSP2 181214Z 20009KT 11/08 A298 RMK A01 T01140078  RH  079%=      5-min Rain = 0
KSP2 181215Z 20008KT 11/08 A298 RMK A01 T01140079  RH  079%=      5-min Rain = 0
KSP2 181216Z 21009KT 11/08 A298 RMK A01 T01130079  RH  079%=      5-min Rain = 0
KSP2 181217Z 20009KT 11/08 A298 RMK A01 T01130079  RH  079%=      5-min Rain = 0
KSP2 181218Z 20009KT 11/08 A298 RMK A01 T01130079  RH  079%=      5-min Rain = 0
KSP2 181219Z 20010KT 11/08 A298 RMK A01 T01140080  RH  079%=      5-min Rain = 0
KSP2 181220Z 20009KT 11/08 A298 RMK A01 T01140080  RH  080%=      5-min Rain = 0
KSP2 181221Z 20008KT 11/08 A298 RMK A01 T01140080  RH  080%=      5-min Rain = 0
KSP2 181222Z 20008KT 11/08 A298 RMK A01 T01130079  RH  080%=      5-min Rain = 0
KSP2 181223Z 20008KT 11/08 A298 RMK A01 T01120079  RH  080%=      5-min Rain = 0
KSP2 181224Z 20009KT 11/08 A298 RMK A01 T01120080  RH  080%=      5-min Rain = 0
KSP2 181225Z 20009KT 11/08 A298 RMK A01 T01120080  RH  080%=      5-min Rain = 0
KSP2 181226Z 20009KT 11/08 A298 RMK A01 T01120080  RH  080%=      5-min Rain = 0
KSP2 181227Z 20009KT 11/08 A298 RMK A01 T01120080  RH  081%=      5-min Rain = 0
KSP2 181228Z 20009KT 11/08 A298 RMK A01 T01120080  RH  081%=      5-min Rain = 0
KSP2 181229Z 20009KT 11/08 A298 RMK A01 T01110080  RH  081%=      5-min Rain = 0
KSP2 181230Z 20008KT 11/08 A298 RMK A01 T01110080  RH  081%=      5-min Rain = 0
KSP2 181231Z 20009KT 11/08 A298 RMK A01 T01110080  RH  081%=      5-min Rain = 0
KSP2 181232Z 20009KT 11/08 A298 RMK A01 T01110081  RH  082%=      5-min Rain = 0
KSP2 181233Z 20009KT 11/08 A298 RMK A01 T01110081  RH  082%=      5-min Rain = 0
KSP2 181234Z 20008KT 11/08 A298 RMK A01 T01120082  RH  082%=      5-min Rain = 0
KSP2 181235Z 20008KT 11/08 A298 RMK A01 T01110082  RH  082%=      5-min Rain = 0
KSP2 181236Z 19009KT 11/08 A298 RMK A01 T01120083  RH  082%=      5-min Rain = 0
KSP2 181237Z 20009KT 11/08 A298 RMK A01 T01130083  RH  082%=      5-min Rain = 0
KSP2 181238Z 20009KT 11/08 A298 RMK A01 T01130083  RH  082%=      5-min Rain = 0
KSP2 181239Z 20009KT 11/08 A298 RMK A01 T01130084  RH  082%=      5-min Rain = 0
KSP2 181240Z 20009KT 11/08 A298 RMK A01 T01130084  RH  082%=      5-min Rain = 0
KSP2 181241Z 20009KT 11/08 A298 RMK A01 T01130084  RH  082%=      5-min Rain = 0
KSP2 181242Z 20009KT 11/08 A298 RMK A01 T01130084  RH  082%=      5-min Rain = 0
KSP2 181243Z 20009KT 11/08 A298 RMK A01 T01130084  RH  082%=      5-min Rain = 0
KSP2 181244Z 20009KT 11/08 A298 RMK A01 T01130084  RH  082%=      5-min Rain = 0
KSP2 181245Z 20008KT 11/09 A298 RMK A01 T01130085  RH  083%=      5-min Rain = 0
KSP2 181246Z 19009KT 11/09 A298 RMK A01 T01130085  RH  083%=      5-min Rain = 0
KSP2 181247Z 19010KT 11/09 A298 RMK A01 T01130085  RH  083%=      5-min Rain = 0
KSP2 181248Z 19009KT 11/09 A298 RMK A01 T01130085  RH  083%=      5-min Rain = 0
KSP2 181249Z 19008KT 11/09 A298 RMK A01 T01130085  RH  083%=      5-min Rain = 0
KSP2 181250Z 19009KT 11/09 A298 RMK A01 T01130085  RH  083%=      5-min Rain = 0
KSP2 181251Z 20008KT 11/09 A298 RMK A01 T01120086  RH  084%=      5-min Rain = 0
KSP2 181252Z 20008KT 11/09 A298 RMK A01 T01120085  RH  084%=      5-min Rain = 0
KSP2 181253Z 20008KT 11/09 A2979 RMK A01 T01120085  RH  084%=      5-min Rain = 0
KSP2 181254Z 19007KT 11/09 A2979 RMK A01 T01110085  RH  084%=      5-min Rain = 0
KSP2 181255Z 20008KT 11/09 A298 RMK A01 T01110085  RH  084%=      5-min Rain = 0
KSP2 181256Z 20008KT 11/09 A298 RMK A01 T01110085  RH  084%=      5-min Rain = 0
KSP2 181257Z 20008KT 11/09 A298 RMK A01 T01110085  RH  084%=      5-min Rain = 0
KSP2 181258Z 20008KT 11/09 A298 RMK A01 T01110085  RH  084%=      5-min Rain = 0
KSP2 181259Z 20008KT 11/09 A298 RMK A01 T01110085  RH  084%=      5-min Rain = 0
KSP2 181300Z 20009KT 11/09 A298 RMK A01 T01110085  RH  084%=      5-min Rain = 0
KSP2 181301Z 20008KT 11/09 A298 RMK A01 T01110085  RH  084%=      5-min Rain = 0
KSP2 181302Z 20009KT 11/09 A298 RMK A01 T01110085  RH  084%=      5-min Rain = 0
KSP2 181303Z 20009KT 11/09 A298 RMK A01 T01110085  RH  084%=      5-min Rain = 0
KSP2 181304Z 20008KT 11/09 A298 RMK A01 T01110085  RH  084%=      5-min Rain = 0
KSP2 181305Z 20008KT 11/09 A298 RMK A01 T01110085  RH  084%=      5-min Rain = 0
KSP2 181306Z 20008KT 11/09 A298 RMK A01 T01110085  RH  084%=      5-min Rain = 0
KSP2 181307Z 20008KT 11/09 A298 RMK A01 T01110085  RH  084%=      5-min Rain = 0
KSP2 181308Z 20008KT 11/09 A298 RMK A01 T01110085  RH  084%=      5-min Rain = 0
KSP2 181309Z 20008KT 11/09 A298 RMK A01 T01110085  RH  084%=      5-min Rain = 0
KSP2 181310Z 20008KT 11/09 A298 RMK A01 T01110085  RH  084%=      5-min Rain = 0
KSP2 181311Z 20009KT 11/09 A298 RMK A01 T01120086  RH  084%=      5-min Rain = 0
KSP2 181312Z 20008KT 11/09 A298 RMK A01 T01120086  RH  084%=      5-min Rain = 0
KSP2 181313Z 20008KT 11/09 A298 RMK A01 T01120086  RH  084%=      5-min Rain = 0
KSP2 181314Z 20008KT 11/09 A298 RMK A01 T01130086  RH  084%=      5-min Rain = 0
KSP2 181315Z 20008KT 11/09 A298 RMK A01 T01130087  RH  084%=      5-min Rain = 0
KSP2 181316Z 20009KT 11/09 A298 RMK A01 T01140087  RH  083%=      5-min Rain = 0
KSP2 181317Z 20009KT 12/09 A298 RMK A01 T01150088  RH  083%=      5-min Rain = 0
KSP2 181318Z 20008KT 12/09 A298 RMK A01 T01160088  RH  083%=      5-min Rain = 0
KSP2 181319Z 20008KT 12/09 A298 RMK A01 T01160088  RH  083%=      5-min Rain = 0
KSP2 181320Z 20009KT 12/09 A298 RMK A01 T01160088  RH  083%=      5-min Rain = 0
KSP2 181321Z 20008KT 12/09 A298 RMK A01 T01170089  RH  083%=      5-min Rain = 0
KSP2 181322Z 20008KT 12/09 A298 RMK A01 T01180089  RH  082%=      5-min Rain = 0
KSP2 181323Z 20007KT 12/09 A298 RMK A01 T01190090  RH  082%=      5-min Rain = 0
KSP2 181324Z 20008KT 12/09 A2979 RMK A01 T01200090  RH  082%=      5-min Rain = 0
KSP2 181325Z 20008KT 12/09 A2979 RMK A01 T01200091  RH  082%=      5-min Rain = 0
KSP2 181326Z 20007KT 12/09 A2979 RMK A01 T01210091  RH  082%=      5-min Rain = 0
KSP2 181327Z 20008KT 12/09 A2979 RMK A01 T01220092  RH  082%=      5-min Rain = 0
KSP2 181328Z 20009KT 12/09 A2979 RMK A01 T01230092  RH  081%=      5-min Rain = 0
KSP2 181329Z 20008KT 12/09 A2979 RMK A01 T01230092  RH  081%=      5-min Rain = 0
KSP2 181330Z 20008KT 12/09 A2979 RMK A01 T01240093  RH  081%=      5-min Rain = 0
KSP2 181331Z 20009KT 13/09 A2979 RMK A01 T01250093  RH  081%=      5-min Rain = 0
KSP2 181332Z 20008KT 13/09 A2979 RMK A01 T01260094  RH  080%=      5-min Rain = 0
KSP2 181333Z 20007KT 13/09 A2979 RMK A01 T01270094  RH  080%=      5-min Rain = 0
KSP2 181334Z 20008KT 13/09 A2979 RMK A01 T01270094  RH  080%=      5-min Rain = 0
KSP2 181335Z 19008KT 13/10 A2979 RMK A01 T01280095  RH  080%=      5-min Rain = 0
KSP2 181336Z 19008KT 13/10 A2979 RMK A01 T01290095  RH  080%=      5-min Rain = 0
KSP2 181337Z 19009KT 13/10 A2979 RMK A01 T01300095  RH  079%=      5-min Rain = 0
KSP2 181338Z 19008KT 13/10 A2979 RMK A01 T01310095  RH  079%=      5-min Rain = 0
KSP2 181339Z 19008KT 13/10 A2979 RMK A01 T01310096  RH  079%=      5-min Rain = 0
KSP2 181340Z 19009KT 13/10 A2979 RMK A01 T01320096  RH  079%=      5-min Rain = 0
KSP2 181341Z 19008KT 13/10 A2979 RMK A01 T01320096  RH  079%=      5-min Rain = 0
KSP2 181342Z 19009KT 13/10 A2979 RMK A01 T01330097  RH  079%=      5-min Rain = 0
KSP2 181343Z 19009KT 13/10 A2979 RMK A01 T01340097  RH  078%=      5-min Rain = 0
KSP2 181344Z 19008KT 13/10 A2979 RMK A01 T01340097  RH  078%=      5-min Rain = 0
KSP2 181345Z 19009KT 13/10 A2979 RMK A01 T01340097  RH  078%=      5-min Rain = 0
KSP2 181346Z 19011KT 14/10 A2979 RMK A01 T01350097  RH  078%=      5-min Rain = 0
KSP2 181347Z 20011KT 14/10 A2979 RMK A01 T01360098  RH  078%=      5-min Rain = 0
KSP2 181348Z 19012KT 14/10 A2979 RMK A01 T01360098  RH  078%=      5-min Rain = 0
KSP2 181349Z 19011KT 14/10 A2979 RMK A01 T01370098  RH  077%=      5-min Rain = 0
KSP2 181350Z 19012KT 14/10 A2979 RMK A01 T01370099  RH  077%=      5-min Rain = 0
KSP2 181351Z 20012KT 14/10 A2979 RMK A01 T01380099  RH  077%=      5-min Rain = 0
KSP2 181352Z 20011KT 14/10 A2979 RMK A01 T01390099  RH  077%=      5-min Rain = 0
KSP2 181353Z 20010KT 14/10 A2979 RMK A01 T01400099  RH  077%=      5-min Rain = 0
KSP2 181354Z 20011KT 14/10 A298 RMK A01 T01400100  RH  076%=      5-min Rain = 0
KSP2 181355Z 20012KT 14/10 A298 RMK A01 T01410100  RH  076%=      5-min Rain = 0
KSP2 181356Z 20010KT 14/10 A298 RMK A01 T01420100  RH  076%=      5-min Rain = 0
KSP2 181357Z 20011KT 14/10 A298 RMK A01 T01430100  RH  076%=      5-min Rain = 0
KSP2 181358Z 20012G17KT 14/10 A298 RMK A01 T01440101  RH  075%=      5-min Rain = 0
KSP2 181359Z 20009KT 15/10 A298 RMK A01 T01450101  RH  075%=      5-min Rain = 0
KSP2 181400Z 20011G16KT 15/10 A298 RMK A01 T01460102  RH  075%=      5-min Rain = 0
KSP2 181401Z 19012KT 15/10 A298 RMK A01 T01470101  RH  074%=      5-min Rain = 0
KSP2 181402Z 20013KT 15/10 A298 RMK A01 T01470101  RH  074%=      5-min Rain = 0
KSP2 181403Z 19012KT 15/10 A298 RMK A01 T01480101  RH  074%=      5-min Rain = 0
KSP2 181404Z 19011KT 15/10 A298 RMK A01 T01480101  RH  073%=      5-min Rain = 0
KSP2 181405Z 19011KT 15/10 A298 RMK A01 T01490101  RH  073%=      5-min Rain = 0
KSP2 181406Z 19010KT 15/10 A298 RMK A01 T01490101  RH  073%=      5-min Rain = 0
KSP2 181407Z 19011KT 15/10 A298 RMK A01 T01500102  RH  073%=      5-min Rain = 0
KSP2 181408Z 19011KT 15/10 A298 RMK A01 T01500101  RH  072%=      5-min Rain = 0
KSP2 181409Z 19011KT 15/10 A298 RMK A01 T01500100  RH  072%=      5-min Rain = 0
KSP2 181410Z 20009KT 15/10 A298 RMK A01 T01500100  RH  072%=      5-min Rain = 0
KSP2 181411Z 19009KT 15/10 A298 RMK A01 T01510101  RH  072%=      5-min Rain = 0
KSP2 181412Z 19011KT 15/10 A298 RMK A01 T01520101  RH  072%=      5-min Rain = 0
KSP2 181413Z 19011KT 15/10 A298 RMK A01 T01530101  RH  071%=      5-min Rain = 0
KSP2 181414Z 20012KT 15/10 A298 RMK A01 T01520100  RH  071%=      5-min Rain = 0
KSP2 181415Z 19012KT 15/10 A298 RMK A01 T01520100  RH  071%=      5-min Rain = 0
KSP2 181416Z 19012KT 15/10 A2979 RMK A01 T01530100  RH  071%=      5-min Rain = 0
KSP2 181417Z 20014KT 15/10 A2979 RMK A01 T01540101  RH  071%=      5-min Rain = 0
KSP2 181418Z 20014KT 15/10 A2979 RMK A01 T01540101  RH  070%=      5-min Rain = 0
KSP2 181419Z 19014KT 16/10 A2979 RMK A01 T01550101  RH  070%=      5-min Rain = 0
KSP2 181420Z 19014KT 16/10 A2979 RMK A01 T01560101  RH  070%=      5-min Rain = 0
KSP2 181421Z 20011KT 16/10 A2979 RMK A01 T01560101  RH  070%=      5-min Rain = 0
KSP2 181422Z 20012G18KT 16/10 A298 RMK A01 T01570102  RH  070%=      5-min Rain = 0
KSP2 181423Z 20015KT 16/10 A298 RMK A01 T01580101  RH  069%=      5-min Rain = 0
KSP2 181424Z 20012KT 16/10 A2979 RMK A01 T01580102  RH  069%=      5-min Rain = 0
KSP2 181425Z 20013KT 16/10 A2979 RMK A01 T01590102  RH  069%=      5-min Rain = 0
KSP2 181426Z 19014KT 16/10 A2979 RMK A01 T01590102  RH  069%=      5-min Rain = 0
KSP2 181427Z 20012KT 16/10 A2979 RMK A01 T01600101  RH  068%=      5-min Rain = 0
KSP2 181428Z 19013KT 16/10 A2979 RMK A01 T01600102  RH  068%=      5-min Rain = 0
KSP2 181429Z 20013KT 16/10 A2979 RMK A01 T01610102  RH  068%=      5-min Rain = 0
KSP2 181430Z 19011KT 16/10 A2979 RMK A01 T01610102  RH  068%=      5-min Rain = 0
KSP2 181431Z 20013KT 16/10 A2979 RMK A01 T01620103  RH  068%=      5-min Rain = 0
KSP2 181432Z 20014KT 16/10 A2979 RMK A01 T01630102  RH  067%=      5-min Rain = 0
KSP2 181433Z 20011KT 16/10 A2979 RMK A01 T01630102  RH  067%=      5-min Rain = 0
KSP2 181434Z 20012KT 16/10 A2979 RMK A01 T01630103  RH  067%=      5-min Rain = 0
KSP2 181435Z 19015KT 16/10 A2979 RMK A01 T01640103  RH  067%=      5-min Rain = 0
KSP2 181436Z 20015KT 16/10 A2979 RMK A01 T01640102  RH  067%=      5-min Rain = 0
KSP2 181437Z 19015KT 16/10 A2979 RMK A01 T01640102  RH  067%=      5-min Rain = 0
KSP2 181438Z 20011KT 16/10 A2979 RMK A01 T01640102  RH  067%=      5-min Rain = 0
KSP2 181439Z 20011G16KT 17/11 A2979 RMK A01 T01650105  RH  067%=      5-min Rain = 0
KSP2 181440Z 19015KT 17/10 A2979 RMK A01 T01670104  RH  066%=      5-min Rain = 0
KSP2 181441Z 20014KT 17/10 A2979 RMK A01 T01670102  RH  066%=      5-min Rain = 0
KSP2 181442Z 19012G17KT 17/10 A2979 RMK A01 T01660103  RH  066%=      5-min Rain = 0
KSP2 181443Z 20016KT 17/10 A2979 RMK A01 T01660103  RH  066%=      5-min Rain = 0
KSP2 181444Z 20015KT 17/10 A2979 RMK A01 T01670103  RH  066%=      5-min Rain = 0
KSP2 181445Z 20013KT 17/10 A2979 RMK A01 T01670103  RH  066%=      5-min Rain = 0
KSP2 181446Z 20010KT 17/10 A2979 RMK A01 T01680104  RH  066%=      5-min Rain = 0
KSP2 181447Z 20013G18KT 17/11 A2979 RMK A01 T01700105  RH  066%=      5-min Rain = 0
KSP2 181448Z 20011KT 17/10 A2979 RMK A01 T01710104  RH  065%=      5-min Rain = 0
KSP2 181449Z 20011KT 17/11 A2979 RMK A01 T01720105  RH  065%=      5-min Rain = 0
KSP2 181450Z 20013KT 17/11 A2979 RMK A01 T01740106  RH  064%=      5-min Rain = 0
KSP2 181451Z 20012KT 17/11 A2979 RMK A01 T01740105  RH  064%=      5-min Rain = 0
KSP2 181452Z 20013KT 17/11 A2979 RMK A01 T01740106  RH  064%=      5-min Rain = 0
KSP2 181453Z 20010KT 18/11 A2979 RMK A01 T01750105  RH  063%=      5-min Rain = 0
KSP2 181454Z 19013KT 18/11 A2979 RMK A01 T01750106  RH  064%=      5-min Rain = 0
KSP2 181455Z 19011KT 18/11 A2979 RMK A01 T01760105  RH  063%=      5-min Rain = 0
KSP2 181456Z 19013KT 18/11 A2979 RMK A01 T01770106  RH  063%=      5-min Rain = 0
KSP2 181457Z 19012KT 18/11 A2979 RMK A01 T01780106  RH  063%=      5-min Rain = 0
KSP2 181458Z 19013KT 18/11 A2979 RMK A01 T01790107  RH  063%=      5-min Rain = 0
KSP2 181459Z 19014KT 18/11 A2979 RMK A01 T01800106  RH  062%=      5-min Rain = 0
KSP2 181500Z 20014KT 18/11 A2979 RMK A01 T01800108  RH  063%=      5-min Rain = 0
KSP2 181501Z 20014KT 18/11 A2979 RMK A01 T01810106  RH  062%=      5-min Rain = 0
KSP2 181502Z 20013KT 18/11 A2979 RMK A01 T01810106  RH  061%=      5-min Rain = 0
KSP2 181503Z 21013KT 18/11 A2979 RMK A01 T01820107  RH  062%=      5-min Rain = 0
KSP2 181504Z 21016KT 18/11 A2979 RMK A01 T01820106  RH  061%=      5-min Rain = 0
KSP2 181505Z 21013KT 18/11 A2979 RMK A01 T01830106  RH  061%=      5-min Rain = 0
KSP2 181506Z 20015KT 18/11 A2979 RMK A01 T01840106  RH  061%=      5-min Rain = 0
KSP2 181507Z 21010KT 19/11 A2979 RMK A01 T01850108  RH  061%=      5-min Rain = 0
KSP2 181508Z 22011KT 19/11 A2979 RMK A01 T01880109  RH  060%=      5-min Rain = 0
KSP2 181509Z 20014KT 19/11 A2979 RMK A01 T01890107  RH  059%=      5-min Rain = 0
KSP2 181510Z 20012KT 19/11 A2978 RMK A01 T01890108  RH  059%=      5-min Rain = 0
KSP2 181511Z 20015KT 19/11 A2978 RMK A01 T01910108  RH  059%=      5-min Rain = 0
KSP2 181512Z 20014KT 19/11 A2978 RMK A01 T01910106  RH  058%=      5-min Rain = 0
KSP2 181513Z 20017KT 19/11 A2978 RMK A01 T01910105  RH  058%=      5-min Rain = 0
KSP2 181514Z 21011KT 19/11 A2978 RMK A01 T01900106  RH  058%=      5-min Rain = 0
KSP2 181515Z 21010KT 19/11 A2978 RMK A01 T01920108  RH  058%=      5-min Rain = 0
KSP2 181516Z 21011KT 19/11 A2978 RMK A01 T01940108  RH  057%=      5-min Rain = 0
KSP2 181517Z 20015KT 20/11 A2978 RMK A01 T01950107  RH  057%=      5-min Rain = 0
KSP2 181518Z 20013KT 19/11 A2978 RMK A01 T01940107  RH  057%=      5-min Rain = 0
KSP2 181519Z 20015KT 19/11 A2978 RMK A01 T01940107  RH  057%=      5-min Rain = 0
KSP2 181520Z 21012KT 19/11 A2978 RMK A01 T01940107  RH  057%=      5-min Rain = 0
KSP2 181521Z 21014KT 20/11 A2978 RMK A01 T01950108  RH  057%=      5-min Rain = 0
KSP2 181522Z 21013KT 20/11 A2978 RMK A01 T01950107  RH  057%=      5-min Rain = 0
KSP2 181523Z 21011KT 20/11 A2978 RMK A01 T01960108  RH  057%=      5-min Rain = 0
KSP2 181524Z 20011KT 20/11 A2978 RMK A01 T01970108  RH  057%=      5-min Rain = 0
KSP2 181525Z 20014KT 20/11 A2978 RMK A01 T01980107  RH  056%=      5-min Rain = 0
KSP2 181526Z 20016KT 20/11 A2978 RMK A01 T01970106  RH  055%=      5-min Rain = 0
KSP2 181527Z 20013KT 20/11 A2978 RMK A01 T01960105  RH  056%=      5-min Rain = 0
KSP2 181528Z 21012KT 20/11 A2978 RMK A01 T01960107  RH  056%=      5-min Rain = 0
KSP2 181529Z 21013KT 20/11 A2978 RMK A01 T01980107  RH  056%=      5-min Rain = 0
KSP2 181530Z 21014KT 20/11 A2978 RMK A01 T01980107  RH  056%=      5-min Rain = 0
KSP2 181531Z 20013KT 20/11 A2978 RMK A01 T01990107  RH  055%=      5-min Rain = 0
KSP2 181532Z 20013KT 20/11 A2978 RMK A01 T02000107  RH  055%=      5-min Rain = 0
KSP2 181533Z 20012KT 20/11 A2978 RMK A01 T02000108  RH  055%=      5-min Rain = 0
KSP2 181534Z 20011KT 20/11 A2978 RMK A01 T02010108  RH  055%=      5-min Rain = 0
KSP2 181535Z 21010KT 20/11 A2978 RMK A01 T02020108  RH  055%=      5-min Rain = 0
KSP2 181536Z 21012KT 20/11 A2978 RMK A01 T02030109  RH  055%=      5-min Rain = 0
KSP2 181537Z 20013KT 21/11 A2978 RMK A01 T02050109  RH  054%=      5-min Rain = 0
KSP2 181538Z 21011KT 21/11 A2978 RMK A01 T02050109  RH  054%=      5-min Rain = 0
KSP2 181539Z 20009KT 21/11 A2978 RMK A01 T02050112  RH  055%=      5-min Rain = 0
KSP2 181540Z 20011KT 21/11 A2978 RMK A01 T02080110  RH  054%=      5-min Rain = 0
KSP2 181541Z 21011KT 21/11 A2978 RMK A01 T02090109  RH  053%=      5-min Rain = 0
KSP2 181542Z 21011KT 21/11 A2978 RMK A01 T02100110  RH  053%=      5-min Rain = 0
KSP2 181543Z 21011KT 21/11 A2978 RMK A01 T02110110  RH  052%=      5-min Rain = 0
KSP2 181544Z 21012KT 21/11 A2978 RMK A01 T02110108  RH  052%=      5-min Rain = 0
KSP2 181545Z 21012KT 21/11 A2978 RMK A01 T02100109  RH  052%=      5-min Rain = 0
KSP2 181546Z 21013KT 21/11 A2978 RMK A01 T02100109  RH  052%=      5-min Rain = 0
KSP2 181547Z 21012KT 21/11 A2978 RMK A01 T02100109  RH  052%=      5-min Rain = 0
KSP2 181548Z 20013G18KT 21/11 A2978 RMK A01 T02100110  RH  053%=      5-min Rain = 0
KSP2 181549Z 19015KT 21/11 A2978 RMK A01 T02120107  RH  051%=      5-min Rain = 0
KSP2 181550Z 19013KT 21/11 A2977 RMK A01 T02100107  RH  052%=      5-min Rain = 0
KSP2 181551Z 20013KT 21/11 A2977 RMK A01 T02090108  RH  052%=      5-min Rain = 0
KSP2 181552Z 20012KT 21/11 A2978 RMK A01 T02090108  RH  052%=      5-min Rain = 0
KSP2 181553Z 20015KT 21/11 A2978 RMK A01 T02110108  RH  052%=      5-min Rain = 0
KSP2 181554Z 21012KT 21/11 A2978 RMK A01 T02110108  RH  052%=      5-min Rain = 0
KSP2 181555Z 21013KT 21/11 A2978 RMK A01 T02110109  RH  052%=      5-min Rain = 0
KSP2 181556Z 20017KT 21/11 A2978 RMK A01 T02120108  RH  051%=      5-min Rain = 0
KSP2 181557Z 21015KT 21/11 A2978 RMK A01 T02110108  RH  052%=      5-min Rain = 0
KSP2 181558Z 20013KT 21/11 A2978 RMK A01 T02110108  RH  052%=      5-min Rain = 0
KSP2 181559Z 20015KT 21/11 A2978 RMK A01 T02120109  RH  052%=      5-min Rain = 0
KSP2 181600Z 20012KT 21/11 A2977 RMK A01 T02120109  RH  052%=      5-min Rain = 0
KSP2 181601Z 19013KT 21/11 A2977 RMK A01 T02130111  RH  052%=      5-min Rain = 0
KSP2 181602Z 20013KT 22/11 A2977 RMK A01 T02150111  RH  051%=      5-min Rain = 0
KSP2 181603Z 21013KT 22/11 A2977 RMK A01 T02160109  RH  051%=      5-min Rain = 0
KSP2 181604Z 20017KT 22/11 A2977 RMK A01 T02160108  RH  050%=      5-min Rain = 0
KSP2 181605Z 20017KT 22/11 A2977 RMK A01 T02160107  RH  050%=      5-min Rain = 0
KSP2 181606Z 19015KT 22/11 A2977 RMK A01 T02150108  RH  050%=      5-min Rain = 0
KSP2 181607Z 20013G18KT 22/11 A2977 RMK A01 T02160109  RH  050%=      5-min Rain = 0
KSP2 181608Z 20016KT 22/11 A2977 RMK A01 T02170108  RH  050%=      5-min Rain = 0
KSP2 181609Z 20016KT 22/11 A2977 RMK A01 T02180108  RH  049%=      5-min Rain = 0
KSP2 181610Z 20017KT 22/11 A2977 RMK A01 T02170107  RH  050%=      5-min Rain = 0
KSP2 181611Z 19016KT 22/11 A2977 RMK A01 T02170108  RH  050%=      5-min Rain = 0
KSP2 181612Z 20015KT 22/11 A2977 RMK A01 T02170108  RH  050%=      5-min Rain = 0
KSP2 181613Z 19015KT 22/11 A2977 RMK A01 T02180108  RH  050%=      5-min Rain = 0
KSP2 181614Z 19014KT 22/11 A2977 RMK A01 T02180109  RH  050%=      5-min Rain = 0
KSP2 181615Z 21014KT 22/11 A2977 RMK A01 T02190109  RH  050%=      5-min Rain = 0
KSP2 181616Z 20014KT 22/11 A2977 RMK A01 T02200108  RH  049%=      5-min Rain = 0
KSP2 181617Z 20015KT 22/11 A2977 RMK A01 T02210109  RH  049%=      5-min Rain = 0
KSP2 181618Z 21015KT 22/11 A2977 RMK A01 T02220109  RH  049%=      5-min Rain = 0
KSP2 181619Z 21016G23KT 22/11 A2977 RMK A01 T02230109  RH  049%=      5-min Rain = 0
KSP2 181620Z 20016KT 22/11 A2977 RMK A01 T02210108  RH  048%=      5-min Rain = 0
KSP2 181621Z 20016KT 22/11 A2977 RMK A01 T02200109  RH  049%=      5-min Rain = 0
KSP2 181622Z 20015KT 22/11 A2977 RMK A01 T02190108  RH  049%=      5-min Rain = 0
KSP2 181623Z 21015KT 22/11 A2977 RMK A01 T02190109  RH  050%=      5-min Rain = 0
KSP2 181624Z 19018KT 22/11 A2977 RMK A01 T02200108  RH  049%=      5-min Rain = 0
KSP2 181625Z 19015KT 22/11 A2977 RMK A01 T02200109  RH  049%=      5-min Rain = 0
KSP2 181626Z 20013G19KT 22/11 A2977 RMK A01 T02200110  RH  050%=      5-min Rain = 0
KSP2 181627Z 21018KT 22/11 A2977 RMK A01 T02220109  RH  049%=      5-min Rain = 0
KSP2 181628Z 20017KT 22/11 A2977 RMK A01 T02200107  RH  049%=      5-min Rain = 0
KSP2 181629Z 19017KT 22/11 A2977 RMK A01 T02170106  RH  049%=      5-min Rain = 0
KSP2 181630Z 20014G19KT 22/11 A2977 RMK A01 T02150107  RH  050%=      5-min Rain = 0
KSP2 181631Z 20015KT 22/11 A2977 RMK A01 T02150108  RH  051%=      5-min Rain = 0
KSP2 181632Z 20016KT 22/11 A2977 RMK A01 T02150107  RH  050%=      5-min Rain = 0
KSP2 181633Z 21017G22KT 22/11 A2976 RMK A01 T02160107  RH  050%=      5-min Rain = 0
KSP2 181634Z 21016KT 22/11 A2976 RMK A01 T02160108  RH  050%=      5-min Rain = 0
KSP2 181635Z 20016KT 22/11 A2976 RMK A01 T02160108  RH  050%=      5-min Rain = 0
KSP2 181636Z 20016KT 22/11 A2976 RMK A01 T02180109  RH  050%=      5-min Rain = 0
KSP2 181637Z 21016G21KT 22/11 A2976 RMK A01 T02230112  RH  049%=      5-min Rain = 0
KSP2 181638Z 21015KT 23/11 A2976 RMK A01 T02260110  RH  048%=      5-min Rain = 0
KSP2 181639Z 21016KT 23/11 A2977 RMK A01 T02260110  RH  048%=      5-min Rain = 0
KSP2 181640Z 20018KT 23/11 A2976 RMK A01 T02260109  RH  048%=      5-min Rain = 0
KSP2 181641Z 20016KT 23/11 A2976 RMK A01 T02260110  RH  048%=      5-min Rain = 0
KSP2 181642Z 20015KT 23/11 A2976 RMK A01 T02260110  RH  048%=      5-min Rain = 0
KSP2 181643Z 21014KT 23/11 A2976 RMK A01 T02270111  RH  048%=      5-min Rain = 0
KSP2 181644Z 22013KT 23/11 A2976 RMK A01 T02300112  RH  047%=      5-min Rain = 0
KSP2 181645Z 21012KT 23/11 A2976 RMK A01 T02320113  RH  047%=      5-min Rain = 0
KSP2 181646Z 20014KT 24/11 A2976 RMK A01 T02350113  RH  046%=      5-min Rain = 0
KSP2 181647Z 20015KT 23/11 A2976 RMK A01 T02340111  RH  046%=      5-min Rain = 0
KSP2 181648Z 21015KT 23/11 A2976 RMK A01 T02310110  RH  047%=      5-min Rain = 0
KSP2 181649Z 20018KT 23/11 A2976 RMK A01 T02300109  RH  046%=      5-min Rain = 0
KSP2 181650Z 20016KT 23/11 A2976 RMK A01 T02270109  RH  047%=      5-min Rain = 0
KSP2 181651Z 21015KT 23/11 A2976 RMK A01 T02250109  RH  048%=      5-min Rain = 0
KSP2 181652Z 22015KT 22/11 A2976 RMK A01 T02240109  RH  048%=      5-min Rain = 0
KSP2 181653Z 20015G20KT 23/11 A2976 RMK A01 T02250110  RH  048%=      5-min Rain = 0
KSP2 181654Z 21013KT 23/11 A2976 RMK A01 T02270112  RH  048%=      5-min Rain = 0
KSP2 181655Z 21013KT 23/11 A2976 RMK A01 T02280111  RH  048%=      5-min Rain = 0
KSP2 181656Z 21015KT 23/11 A2976 RMK A01 T02250109  RH  048%=      5-min Rain = 0
KSP2 181657Z 21014KT 22/11 A2976 RMK A01 T02210108  RH  049%=      5-min Rain = 0
KSP2 181658Z 21011KT 22/11 A2976 RMK A01 T02200110  RH  049%=      5-min Rain = 0
KSP2 181659Z 21010G17KT 22/11 A2976 RMK A01 T02190110  RH  050%=      5-min Rain = 0
KSP2 181700Z 20015G20KT 22/11 A2976 RMK A01 T02190110  RH  050%=      5-min Rain = 0
KSP2 181701Z 21013KT 22/11 A2975 RMK A01 T02200110  RH  050%=      5-min Rain = 0
KSP2 181702Z 21014KT 22/11 A2975 RMK A01 T02210110  RH  049%=      5-min Rain = 0
KSP2 181703Z 20014KT 23/11 A2975 RMK A01 T02250113  RH  049%=      5-min Rain = 0
KSP2 181704Z 19013G19KT 23/12 A2975 RMK A01 T02320117  RH  048%=      5-min Rain = 0
KSP2 181705Z 20017KT 24/12 A2975 RMK A01 T02360115  RH  046%=      5-min Rain = 0
KSP2 181706Z 20014KT 23/11 A2975 RMK A01 T02340112  RH  046%=      5-min Rain = 0
KSP2 181707Z 21014G19KT 23/11 A2975 RMK A01 T02340114  RH  047%=      5-min Rain = 0
KSP2 181708Z 21019KT 24/11 A2975 RMK A01 T02350112  RH  046%=      5-min Rain = 0
KSP2 181709Z 21015KT 23/11 A2975 RMK A01 T02330110  RH  046%=      5-min Rain = 0
KSP2 181710Z 21015KT 23/11 A2975 RMK A01 T02310110  RH  047%=      5-min Rain = 0
KSP2 181711Z 20015KT 23/11 A2975 RMK A01 T02280110  RH  047%=      5-min Rain = 0
KSP2 181712Z 20013KT 23/11 A2975 RMK A01 T02250110  RH  048%=      5-min Rain = 0
KSP2 181713Z 19015G20KT 22/11 A2975 RMK A01 T02230110  RH  049%=      5-min Rain = 0
KSP2 181714Z 21013KT 22/11 A2975 RMK A01 T02220110  RH  049%=      5-min Rain = 0
KSP2 181715Z 21014KT 22/11 A2975 RMK A01 T02210110  RH  049%=      5-min Rain = 0
KSP2 181716Z 21014KT 22/11 A2975 RMK A01 T02210110  RH  049%=      5-min Rain = 0
KSP2 181717Z 20015KT 22/11 A2975 RMK A01 T02200110  RH  050%=      5-min Rain = 0
KSP2 181718Z 20013KT 22/11 A2975 RMK A01 T02190110  RH  050%=      5-min Rain = 0
KSP2 181719Z 20012KT 22/11 A2975 RMK A01 T02190111  RH  050%=      5-min Rain = 0
KSP2 181720Z 20011KT 22/11 A2975 RMK A01 T02210113  RH  050%=      5-min Rain = 0
KSP2 181721Z 20013KT 22/11 A2975 RMK A01 T02240114  RH  050%=      5-min Rain = 0
KSP2 181722Z 20014KT 23/11 A2975 RMK A01 T02250112  RH  049%=      5-min Rain = 0
KSP2 181723Z 21014KT 23/11 A2975 RMK A01 T02260111  RH  048%=      5-min Rain = 0
KSP2 181724Z 21012KT 22/11 A2975 RMK A01 T02240110  RH  049%=      5-min Rain = 0
KSP2 181725Z 21011G16KT 22/11 A2975 RMK A01 T02230111  RH  049%=      5-min Rain = 0
KSP2 181726Z 21012KT 22/11 A2975 RMK A01 T02230111  RH  049%=      5-min Rain = 0
KSP2 181727Z 20012KT 23/11 A2975 RMK A01 T02260114  RH  049%=      5-min Rain = 0
KSP2 181728Z 19012KT 23/12 A2974 RMK A01 T02300116  RH  049%=      5-min Rain = 0
KSP2 181729Z 20012G17KT 23/12 A2974 RMK A01 T02330117  RH  048%=      5-min Rain = 0
KSP2 181730Z 19014KT 23/12 A2974 RMK A01 T02340115  RH  047%=      5-min Rain = 0
KSP2 181731Z 19014KT 23/11 A2974 RMK A01 T02320114  RH  047%=      5-min Rain = 0
KSP2 181732Z 20015KT 23/11 A2974 RMK A01 T02310114  RH  048%=      5-min Rain = 0
KSP2 181733Z 20016G21KT 23/11 A2974 RMK A01 T02300114  RH  048%=      5-min Rain = 0
KSP2 181734Z 20018KT 23/11 A2974 RMK A01 T02290112  RH  047%=      5-min Rain = 0
KSP2 181735Z 21015KT 23/12 A2974 RMK A01 T02340116  RH  047%=      5-min Rain = 0
KSP2 181736Z 21017G23KT 24/12 A2974 RMK A01 T02390117  RH  046%=      5-min Rain = 0
KSP2 181737Z 20016KT 24/12 A2974 RMK A01 T02420117  RH  045%=      5-min Rain = 0
KSP2 181738Z 21016KT 24/12 A2974 RMK A01 T02420115  RH  045%=      5-min Rain = 0
KSP2 181739Z 21014KT 24/11 A2974 RMK A01 T02380113  RH  045%=      5-min Rain = 0
KSP2 181740Z 21018KT 23/11 A2974 RMK A01 T02340111  RH  046%=      5-min Rain = 0
KSP2 181741Z 20017KT 23/11 A2974 RMK A01 T02320111  RH  047%=      5-min Rain = 0
KSP2 181742Z 21015KT 23/11 A2974 RMK A01 T02310112  RH  047%=      5-min Rain = 0
KSP2 181743Z 20016KT 23/11 A2974 RMK A01 T02310113  RH  047%=      5-min Rain = 0
KSP2 181744Z 20015KT 23/11 A2974 RMK A01 T02330114  RH  047%=      5-min Rain = 0
KSP2 181745Z 21014KT 24/12 A2974 RMK A01 T02350115  RH  047%=      5-min Rain = 0
KSP2 181746Z 21014KT 24/12 A2974 RMK A01 T02380116  RH  046%=      5-min Rain = 0
KSP2 181747Z 22012KT 24/12 A2974 RMK A01 T02380115  RH  046%=      5-min Rain = 0
KSP2 181748Z 21012KT 24/12 A2974 RMK A01 T02370116  RH  047%=      5-min Rain = 0
KSP2 181749Z 20014KT 24/12 A2974 RMK A01 T02360115  RH  046%=      5-min Rain = 0
KSP2 181750Z 20013KT 24/12 A2974 RMK A01 T02350115  RH  047%=      5-min Rain = 0
KSP2 181751Z 20015KT 23/12 A2974 RMK A01 T02340115  RH  047%=      5-min Rain = 0
KSP2 181752Z 20013KT 23/11 A2974 RMK A01 T02330113  RH  047%=      5-min Rain = 0
KSP2 181753Z 20011G18KT 24/12 A2974 RMK A01 T02350116  RH  047%=      5-min Rain = 0
KSP2 181754Z 21015G20KT 24/12 A2974 RMK A01 T02370116  RH  046%=      5-min Rain = 0
KSP2 181755Z 20014KT 24/12 A2974 RMK A01 T02380116  RH  046%=      5-min Rain = 0
KSP2 181756Z 21013KT 24/11 A2974 RMK A01 T02380114  RH  046%=      5-min Rain = 0
KSP2 181757Z 21014KT 24/12 A2974 RMK A01 T02360115  RH  046%=      5-min Rain = 0
KSP2 181758Z 20014KT 24/11 A2974 RMK A01 T02350114  RH  047%=      5-min Rain = 0
KSP2 181759Z 21013KT 23/11 A2974 RMK A01 T02330114  RH  047%=      5-min Rain = 0
KSP2 181800Z 21012G17KT 23/11 A2974 RMK A01 T02320114  RH  047%=      5-min Rain = 0
KSP2 181801Z 20012KT 24/12 A2974 RMK A01 T02350117  RH  047%=      5-min Rain = 0
KSP2 181802Z 21016KT 24/12 A2974 RMK A01 T02400118  RH  046%=      5-min Rain = 0
KSP2 181803Z 20013KT 24/12 A2973 RMK A01 T02420116  RH  045%=      5-min Rain = 0
KSP2 181804Z 22013KT 24/12 A2973 RMK A01 T02410118  RH  046%=      5-min Rain = 0
KSP2 181805Z 21018KT 25/12 A2973 RMK A01 T02460120  RH  045%=      5-min Rain = 0
KSP2 181806Z 21017G22KT 25/12 A2973 RMK A01 T02500120  RH  044%=      5-min Rain = 0
KSP2 181807Z 22014KT 25/12 A2973 RMK A01 T02510118  RH  044%=      5-min Rain = 0
KSP2 181808Z 21014KT 25/12 A2973 RMK A01 T02500119  RH  044%=      5-min Rain = 0
KSP2 181809Z 22014KT 25/12 A2973 RMK A01 T02500119  RH  044%=      5-min Rain = 0
KSP2 181810Z 20014G19KT 25/12 A2973 RMK A01 T02500118  RH  044%=      5-min Rain = 0
KSP2 181811Z 20011KT 25/12 A2973 RMK A01 T02500119  RH  044%=      5-min Rain = 0
KSP2 181812Z 20013KT 25/12 A2973 RMK A01 T02510121  RH  044%=      5-min Rain = 0
KSP2 181813Z 19014KT 26/12 A2973 RMK A01 T02550120  RH  043%=      5-min Rain = 0
KSP2 181814Z 20014KT 26/12 A2972 RMK A01 T02550121  RH  043%=      5-min Rain = 0
KSP2 181815Z 20012KT 25/12 A2972 RMK A01 T02540119  RH  043%=      5-min Rain = 0
KSP2 181816Z 20011KT 25/12 A2972 RMK A01 T02530120  RH  043%=      5-min Rain = 0
KSP2 181817Z 21010G15KT 25/12 A2972 RMK A01 T02530121  RH  044%=      5-min Rain = 0
KSP2 181818Z 23012KT 26/12 A2972 RMK A01 T02560121  RH  043%=      5-min Rain = 0
KSP2 181819Z 22012KT 25/12 A2972 RMK A01 T02540118  RH  043%=      5-min Rain = 0
KSP2 181820Z 20014KT 25/12 A2972 RMK A01 T02530119  RH  043%=      5-min Rain = 0
KSP2 181821Z 20012G17KT 25/12 A2972 RMK A01 T02540120  RH  043%=      5-min Rain = 0
KSP2 181822Z 20014KT 26/12 A2972 RMK A01 T02560119  RH  042%=      5-min Rain = 0
KSP2 181823Z 20011KT 26/12 A2972 RMK A01 T02570121  RH  043%=      5-min Rain = 0
KSP2 181824Z 19014KT 26/12 A2972 RMK A01 T02580121  RH  042%=      5-min Rain = 0
KSP2 181825Z 19015KT 26/12 A2972 RMK A01 T02570121  RH  043%=      5-min Rain = 0
KSP2 181826Z 20012KT 26/12 A2972 RMK A01 T02580122  RH  043%=      5-min Rain = 0
KSP2 181827Z 20014KT 26/12 A2972 RMK A01 T02610123  RH  042%=      5-min Rain = 0
KSP2 181828Z 20014KT 26/12 A2972 RMK A01 T02630121  RH  041%=      5-min Rain = 0
KSP2 181829Z 22015G20KT 26/12 A2972 RMK A01 T02630121  RH  041%=      5-min Rain = 0
KSP2 181830Z 22015KT 26/12 A2972 RMK A01 T02630120  RH  041%=      5-min Rain = 0
KSP2 181831Z 22012KT 26/12 A2971 RMK A01 T02620121  RH  041%=      5-min Rain = 0
KSP2 181832Z 21014KT 26/12 A2971 RMK A01 T02620122  RH  042%=      5-min Rain = 0
KSP2 181833Z 20014KT 26/12 A2971 RMK A01 T02630121  RH  041%=      5-min Rain = 0
KSP2 181834Z 20015KT 26/12 A2971 RMK A01 T02630122  RH  042%=      5-min Rain = 0
KSP2 181835Z 19016KT 26/12 A2971 RMK A01 T02630119  RH  041%=      5-min Rain = 0
KSP2 181836Z 19013KT 26/12 A2971 RMK A01 T02590119  RH  042%=      5-min Rain = 0
KSP2 181837Z 19012KT 26/12 A2971 RMK A01 T02580120  RH  042%=      5-min Rain = 0
KSP2 181838Z 20018KT 26/12 A2971 RMK A01 T02580120  RH  042%=      5-min Rain = 0
KSP2 181839Z 21013G18KT 26/12 A2971 RMK A01 T02580119  RH  042%=      5-min Rain = 0
KSP2 181840Z 22013KT 26/12 A2971 RMK A01 T02590121  RH  042%=      5-min Rain = 0
KSP2 181841Z 20014KT 26/12 A2971 RMK A01 T02610120  RH  041%=      5-min Rain = 0
KSP2 181842Z 21014KT 26/12 A2971 RMK A01 T02620121  RH  041%=      5-min Rain = 0
KSP2 181843Z 20014KT 26/12 A2971 RMK A01 T02610119  RH  041%=      5-min Rain = 0
KSP2 181844Z 21012KT 26/12 A2971 RMK A01 T02570119  RH  042%=      5-min Rain = 0
KSP2 181845Z 21013KT 26/12 A2971 RMK A01 T02570119  RH  042%=      5-min Rain = 0
KSP2 181846Z 22012KT 26/12 A2971 RMK A01 T02550118  RH  042%=      5-min Rain = 0
KSP2 181847Z 20014KT 25/12 A2971 RMK A01 T02540120  RH  043%=      5-min Rain = 0
KSP2 181848Z 20010KT 26/12 A2971 RMK A01 T02570122  RH  043%=      5-min Rain = 0
KSP2 181849Z 21011KT 26/12 A297 RMK A01 T02610123  RH  042%=      5-min Rain = 0
KSP2 181850Z 22012G17KT 26/12 A297 RMK A01 T02640122  RH  041%=      5-min Rain = 0
KSP2 181851Z 21013KT 27/12 A297 RMK A01 T02650122  RH  041%=      5-min Rain = 0
KSP2 181852Z 20011KT 27/12 A297 RMK A01 T02670122  RH  041%=      5-min Rain = 0
KSP2 181853Z 20012KT 27/12 A297 RMK A01 T02660123  RH  041%=      5-min Rain = 0
KSP2 181854Z 21010KT 26/12 A297 RMK A01 T02640123  RH  041%=      5-min Rain = 0
KSP2 181855Z 21012KT 27/13 A297 RMK A01 T02660125  RH  042%=      5-min Rain = 0
KSP2 181856Z 22014KT 27/13 A297 RMK A01 T02710125  RH  040%=      5-min Rain = 0
KSP2 181857Z 23013KT 27/12 A297 RMK A01 T02720122  RH  039%=      5-min Rain = 0
KSP2 181858Z 23012KT 27/12 A297 RMK A01 T02690120  RH  040%=      5-min Rain = 0
KSP2 181859Z 21010KT 27/12 A297 RMK A01 T02690124  RH  041%=      5-min Rain = 0
KSP2 181900Z 19015KT 27/12 A297 RMK A01 T02740124  RH  039%=      5-min Rain = 0
KSP2 181901Z 19015KT 27/12 A297 RMK A01 T02710119  RH  039%=      5-min Rain = 0
KSP2 181902Z 19018KT 27/12 A297 RMK A01 T02650118  RH  040%=      5-min Rain = 0
KSP2 181903Z 19014KT 26/12 A297 RMK A01 T02630121  RH  041%=      5-min Rain = 0
KSP2 181904Z 20016KT 27/12 A297 RMK A01 T02660120  RH  040%=      5-min Rain = 0
KSP2 181905Z 21016KT 27/12 A297 RMK A01 T02670120  RH  040%=      5-min Rain = 0
KSP2 181906Z 21012KT 27/12 A297 RMK A01 T02680120  RH  040%=      5-min Rain = 0
KSP2 181907Z 21013KT 27/12 A297 RMK A01 T02670121  RH  040%=      5-min Rain = 0
KSP2 181908Z 23011KT 26/12 A297 RMK A01 T02640119  RH  040%=      5-min Rain = 0
KSP2 181909Z 21010KT 26/12 A297 RMK A01 T02610118  RH  041%=      5-min Rain = 0
KSP2 181910Z 21008KT 26/12 A297 RMK A01 T02600120  RH  042%=      5-min Rain = 0
KSP2 181911Z 21014KT 26/12 A2969 RMK A01 T02610121  RH  042%=      5-min Rain = 0
KSP2 181912Z 21011KT 26/12 A2969 RMK A01 T02620121  RH  041%=      5-min Rain = 0
KSP2 181913Z 22007KT 26/12 A2969 RMK A01 T02630122  RH  042%=      5-min Rain = 0
KSP2 181914Z 22012KT 26/12 A2969 RMK A01 T02640121  RH  041%=      5-min Rain = 0
KSP2 181915Z 20009KT 26/12 A2969 RMK A01 T02620119  RH  041%=      5-min Rain = 0
KSP2 181916Z 20008KT 26/12 A2969 RMK A01 T02610121  RH  042%=      5-min Rain = 0
KSP2 181917Z 21012KT 26/12 A2969 RMK A01 T02620123  RH  042%=      5-min Rain = 0
KSP2 181918Z 22012KT 27/12 A2969 RMK A01 T02680124  RH  041%=      5-min Rain = 0
KSP2 181919Z 23008KT 27/12 A2969 RMK A01 T02710122  RH  040%=      5-min Rain = 0
KSP2 181920Z 22009KT 27/12 A2969 RMK A01 T02740124  RH  039%=      5-min Rain = 0
KSP2 181921Z 22010G16KT 28/12 A2969 RMK A01 T02750124  RH  039%=      5-min Rain = 0
KSP2 181922Z 22014KT 28/12 A2969 RMK A01 T02780124  RH  039%=      5-min Rain = 0
KSP2 181923Z 23012G18KT 28/12 A2969 RMK A01 T02770121  RH  038%=      5-min Rain = 0
KSP2 181924Z 20012KT 27/12 A2969 RMK A01 T02740123  RH  039%=      5-min Rain = 0
KSP2 181925Z 21015KT 28/12 A2968 RMK A01 T02750123  RH  039%=      5-min Rain = 0
KSP2 181926Z 22013G20KT 27/12 A2968 RMK A01 T02710119  RH  039%=      5-min Rain = 0
KSP2 181927Z 22011KT 27/12 A2968 RMK A01 T02680120  RH  040%=      5-min Rain = 0
KSP2 181928Z 22010KT 27/12 A2968 RMK A01 T02670119  RH  040%=      5-min Rain = 0
KSP2 181929Z 21016KT 27/12 A2968 RMK A01 T02690121  RH  040%=      5-min Rain = 0
KSP2 181930Z 20013KT 27/12 A2968 RMK A01 T02710121  RH  039%=      5-min Rain = 0
KSP2 181931Z 19014G19KT 27/12 A2968 RMK A01 T02720123  RH  040%=      5-min Rain = 0
KSP2 181932Z 19012G17KT 27/12 A2968 RMK A01 T02710121  RH  039%=      5-min Rain = 0
KSP2 181933Z 20012G20KT 27/12 A2968 RMK A01 T02710124  RH  040%=      5-min Rain = 0
KSP2 181934Z 20015KT 27/12 A2968 RMK A01 T02730123  RH  039%=      5-min Rain = 0
KSP2 181935Z 20014G19KT 28/12 A2968 RMK A01 T02750123  RH  039%=      5-min Rain = 0
KSP2 181936Z 21019KT 28/12 A2968 RMK A01 T02770122  RH  038%=      5-min Rain = 0
KSP2 181937Z 22014KT 28/12 A2968 RMK A01 T02770121  RH  038%=      5-min Rain = 0
KSP2 181938Z 22013KT 28/12 A2968 RMK A01 T02770124  RH  039%=      5-min Rain = 0
KSP2 181939Z 23011KT 28/12 A2968 RMK A01 T02770122  RH  038%=      5-min Rain = 0
KSP2 181940Z 22016KT 28/12 A2968 RMK A01 T02760122  RH  038%=      5-min Rain = 0
KSP2 181941Z 21014KT 28/12 A2968 RMK A01 T02760123  RH  039%=      5-min Rain = 0
KSP2 181942Z 23012KT 28/12 A2968 RMK A01 T02760123  RH  039%=      5-min Rain = 0
KSP2 181943Z 22011KT 28/12 A2968 RMK A01 T02760122  RH  038%=      5-min Rain = 0
KSP2 181944Z 23013G19KT 28/12 A2967 RMK A01 T02770124  RH  039%=      5-min Rain = 0
KSP2 181945Z 21016KT 28/12 A2967 RMK A01 T02780122  RH  038%=      5-min Rain = 0
KSP2 181946Z 23012G18KT 28/12 A2967 RMK A01 T02780123  RH  038%=      5-min Rain = 0
KSP2 181947Z 23012KT 28/13 A2967 RMK A01 T02810125  RH  038%=      5-min Rain = 0
KSP2 181948Z 22014KT 28/12 A2967 RMK A01 T02840124  RH  037%=      5-min Rain = 0
KSP2 181949Z 20015KT 28/12 A2967 RMK A01 T02830123  RH  037%=      5-min Rain = 0
KSP2 181950Z 21013KT 28/12 A2967 RMK A01 T02820123  RH  037%=      5-min Rain = 0
KSP2 181951Z 21011KT 28/12 A2967 RMK A01 T02830124  RH  037%=      5-min Rain = 0
KSP2 181952Z 20013KT 28/12 A2967 RMK A01 T02830123  RH  037%=      5-min Rain = 0
KSP2 181953Z 23011KT 28/12 A2967 RMK A01 T02820122  RH  037%=      5-min Rain = 0
KSP2 181954Z 23011KT 28/12 A2967 RMK A01 T02810123  RH  038%=      5-min Rain = 0
KSP2 181955Z 23009KT 28/12 A2967 RMK A01 T02830124  RH  037%=      5-min Rain = 0
KSP2 181956Z 22014KT 29/13 A2967 RMK A01 T02860126  RH  037%=      5-min Rain = 0
KSP2 181957Z 22010KT 29/13 A2967 RMK A01 T02870125  RH  037%=      5-min Rain = 0
KSP2 181958Z 22010G15KT 29/12 A2967 RMK A01 T02870124  RH  037%=      5-min Rain = 0
KSP2 181959Z 22010G17KT 29/12 A2967 RMK A01 T02860124  RH  037%=      5-min Rain = 0
KSP2 182000Z 20012KT 28/12 A2967 RMK A01 T02840122  RH  037%=      5-min Rain = 0
KSP2 182001Z 19012KT 29/12 A2966 RMK A01 T02850124  RH  037%=      5-min Rain = 0
KSP2 182002Z 21012KT 29/12 A2966 RMK A01 T02870123  RH  036%=      5-min Rain = 0
KSP2 182003Z 23011G16KT 29/12 A2966 RMK A01 T02860123  RH  036%=      5-min Rain = 0
KSP2 182004Z 22014KT 29/12 A2966 RMK A01 T02870122  RH  036%=      5-min Rain = 0
KSP2 182005Z 19015KT 29/12 A2966 RMK A01 T02850123  RH  037%=      5-min Rain = 0
KSP2 182006Z 19013KT 29/12 A2966 RMK A01 T02870123  RH  036%=      5-min Rain = 0
KSP2 182007Z 18011KT 29/12 A2966 RMK A01 T02850123  RH  037%=      5-min Rain = 0
KSP2 182008Z 18010KT 28/12 A2966 RMK A01 T02840123  RH  037%=      5-min Rain = 0
KSP2 182009Z 19008KT 28/12 A2966 RMK A01 T02820124  RH  038%=      5-min Rain = 0
KSP2 182010Z 20007KT 28/12 A2966 RMK A01 T02830123  RH  037%=      5-min Rain = 0
KSP2 182011Z 19008G13KT 29/13 A2966 RMK A01 T02860125  RH  037%=      5-min Rain = 0
KSP2 182012Z 21010KT 29/13 A2965 RMK A01 T02890125  RH  036%=      5-min Rain = 0
KSP2 182013Z 22011KT 29/12 A2965 RMK A01 T02910124  RH  036%=      5-min Rain = 0
KSP2 182014Z 21007G12KT 29/12 A2965 RMK A01 T02910123  RH  035%=      5-min Rain = 0
KSP2 182015Z 19011KT 29/12 A2965 RMK A01 T02910123  RH  035%=      5-min Rain = 0
KSP2 182016Z 19010KT 29/12 A2965 RMK A01 T02900122  RH  036%=      5-min Rain = 0
KSP2 182017Z 18011KT 29/12 A2965 RMK A01 T02880124  RH  036%=      5-min Rain = 0
KSP2 182018Z 19011KT 29/13 A2965 RMK A01 T02890125  RH  036%=      5-min Rain = 0
KSP2 182019Z 18014KT 29/12 A2965 RMK A01 T02890122  RH  036%=      5-min Rain = 0
KSP2 182020Z 19010KT 29/12 A2965 RMK A01 T02870122  RH  036%=      5-min Rain = 0
KSP2 182021Z 18012KT 29/12 A2965 RMK A01 T02870122  RH  036%=      5-min Rain = 0
KSP2 182022Z 18011KT 29/12 A2965 RMK A01 T02870121  RH  036%=      5-min Rain = 0
KSP2 182023Z 18010KT 29/12 A2965 RMK A01 T02850120  RH  036%=      5-min Rain = 0
KSP2 182024Z 20007KT 28/12 A2964 RMK A01 T02840122  RH  037%=      5-min Rain = 0
KSP2 182025Z 19012KT 29/12 A2964 RMK A01 T02860124  RH  037%=      5-min Rain = 0
KSP2 182026Z 19013KT 29/12 A2964 RMK A01 T02900123  RH  036%=      5-min Rain = 0
KSP2 182027Z 18014KT 29/12 A2964 RMK A01 T02910122  RH  035%=      5-min Rain = 0
KSP2 182028Z 19016KT 29/12 A2964 RMK A01 T02900121  RH  035%=      5-min Rain = 0
KSP2 182029Z 20013KT 29/12 A2964 RMK A01 T02880118  RH  035%=      5-min Rain = 0
KSP2 182030Z 21010KT 29/12 A2964 RMK A01 T02860118  RH  035%=      5-min Rain = 0
KSP2 182031Z 21012KT 29/12 A2964 RMK A01 T02870120  RH  036%=      5-min Rain = 0
KSP2 182032Z 19012KT 29/12 A2964 RMK A01 T02880120  RH  035%=      5-min Rain = 0
KSP2 182033Z 19013KT 29/12 A2964 RMK A01 T02880121  RH  035%=      5-min Rain = 0
KSP2 182034Z 19010KT 29/12 A2964 RMK A01 T02880121  RH  036%=      5-min Rain = 0
KSP2 182035Z 18011KT 29/12 A2964 RMK A01 T02880122  RH  036%=      5-min Rain = 0
KSP2 182036Z 18013KT 29/12 A2964 RMK A01 T02880122  RH  036%=      5-min Rain = 0
KSP2 182037Z 18013KT 29/12 A2963 RMK A01 T02890122  RH  036%=      5-min Rain = 0
KSP2 182038Z 17010KT 29/13 A2963 RMK A01 T02890125  RH  036%=      5-min Rain = 0
KSP2 182039Z 17011KT 29/12 A2963 RMK A01 T02910124  RH  036%=      5-min Rain = 0
KSP2 182040Z 18014KT 29/12 A2963 RMK A01 T02900123  RH  036%=      5-min Rain = 0
KSP2 182041Z 19015KT 29/12 A2963 RMK A01 T02890123  RH  036%=      5-min Rain = 0
KSP2 182042Z 18015KT 29/12 A2963 RMK A01 T02900123  RH  036%=      5-min Rain = 0
KSP2 182043Z 19011KT 29/12 A2963 RMK A01 T02900123  RH  036%=      5-min Rain = 0
KSP2 182044Z 20010KT 29/12 A2963 RMK A01 T02890121  RH  036%=      5-min Rain = 0
KSP2 182045Z 20009KT 29/12 A2963 RMK A01 T02890123  RH  036%=      5-min Rain = 0
KSP2 182046Z 20011KT 29/13 A2963 RMK A01 T02930125  RH  036%=      5-min Rain = 0
KSP2 182047Z 20015KT 30/12 A2963 RMK A01 T02960123  RH  034%=      5-min Rain = 0
KSP2 182048Z 19014KT 30/12 A2963 RMK A01 T02950122  RH  034%=      5-min Rain = 0
KSP2 182049Z 20015KT 29/12 A2963 RMK A01 T02930123  RH  035%=      5-min Rain = 0
KSP2 182050Z 19014KT 29/12 A2963 RMK A01 T02910120  RH  035%=      5-min Rain = 0
KSP2 182051Z 18013KT 29/12 A2963 RMK A01 T02860121  RH  036%=      5-min Rain = 0
KSP2 182052Z 19012KT 28/12 A2963 RMK A01 T02830120  RH  036%=      5-min Rain = 0
KSP2 182053Z 19013KT 28/12 A2963 RMK A01 T02830121  RH  037%=      5-min Rain = 0
KSP2 182054Z 19011KT 28/12 A2963 RMK A01 T02820120  RH  037%=      5-min Rain = 0
KSP2 182055Z 19010KT 28/12 A2963 RMK A01 T02830123  RH  037%=      5-min Rain = 0
KSP2 182056Z 18009KT 29/12 A2963 RMK A01 T02860123  RH  037%=      5-min Rain = 0
KSP2 182057Z 19011KT 29/12 A2963 RMK A01 T02890124  RH  036%=      5-min Rain = 0
KSP2 182058Z 19011KT 29/12 A2963 RMK A01 T02910123  RH  035%=      5-min Rain = 0
KSP2 182059Z 18008KT 29/12 A2963 RMK A01 T02930123  RH  035%=      5-min Rain = 0
KSP2 182100Z 18010KT 29/12 A2963 RMK A01 T02940124  RH  035%=      5-min Rain = 0
KSP2 182101Z 18009KT 30/12 A2963 RMK A01 T02950123  RH  035%=      5-min Rain = 0
KSP2 182102Z 18010KT 29/13 A2963 RMK A01 T02940125  RH  035%=      5-min Rain = 0
KSP2 182103Z 20013KT 30/12 A2963 RMK A01 T02960119  RH  034%=      5-min Rain = 0
KSP2 182104Z 19010KT 30/12 A2963 RMK A01 T02970117  RH  033%=      5-min Rain = 0
KSP2 182105Z 19011KT 30/12 A2963 RMK A01 T02980119  RH  033%=      5-min Rain = 0
KSP2 182106Z 21015G21KT 30/12 A2963 RMK A01 T03000118  RH  033%=      5-min Rain = 0
KSP2 182107Z 21015KT 30/11 A2963 RMK A01 T03010109  RH  031%=      5-min Rain = 0
KSP2 182108Z 21016KT 30/11 A2963 RMK A01 T03020106  RH  030%=      5-min Rain = 0
KSP2 182109Z 21014KT 30/11 A2963 RMK A01 T03020105  RH  030%=      5-min Rain = 0
KSP2 182110Z 21016KT 30/10 A2962 RMK A01 T03020103  RH  029%=      5-min Rain = 0
KSP2 182111Z 22012G19KT 30/10 A2963 RMK A01 T03020104  RH  029%=      5-min Rain = 0
KSP2 182112Z 22015KT 30/10 A2963 RMK A01 T03020101  RH  029%=      5-min Rain = 0
KSP2 182113Z 22014KT 30/10 A2963 RMK A01 T03010103  RH  029%=      5-min Rain = 0
KSP2 182114Z 22013KT 30/11 A2963 RMK A01 T03010106  RH  030%=      5-min Rain = 0
KSP2 182115Z 23015KT 30/10 A2963 RMK A01 T03020103  RH  029%=      5-min Rain = 0
KSP2 182116Z 24013KT 30/10 A2963 RMK A01 T03020101  RH  029%=      5-min Rain = 0
KSP2 182117Z 23012G17KT 30/10 A2962 RMK A01 T03010102  RH  029%=      5-min Rain = 0
KSP2 182118Z 21011KT 30/10 A2962 RMK A01 T03020102  RH  029%=      5-min Rain = 0
KSP2 182119Z 20014KT 30/10 A2962 RMK A01 T03030101  RH  029%=      5-min Rain = 0
KSP2 182120Z 20012KT 30/10 A2962 RMK A01 T02990098  RH  029%=      5-min Rain = 0
KSP2 182121Z 21010KT 30/10 A2962 RMK A01 T02970099  RH  029%=      5-min Rain = 0
KSP2 182122Z 24011G16KT 30/10 A2962 RMK A01 T02970101  RH  030%=      5-min Rain = 0
KSP2 182123Z 23013KT 30/10 A2962 RMK A01 T03000096  RH  028%=      5-min Rain = 0
KSP2 182124Z 24008KT 30/10 A2962 RMK A01 T03010098  RH  028%=      5-min Rain = 0
KSP2 182125Z 23014G19KT 30/10 A2962 RMK A01 T03030095  RH  028%=      5-min Rain = 0
KSP2 182126Z 21015KT 30/09 A2962 RMK A01 T03020093  RH  027%=      5-min Rain = 0
KSP2 182127Z 21012G17KT 30/09 A2962 RMK A01 T02980089  RH  027%=      5-min Rain = 0
KSP2 182128Z 22010KT 30/09 A2962 RMK A01 T02950091  RH  028%=      5-min Rain = 0
KSP2 182129Z 21014G23KT 29/09 A2962 RMK A01 T02930091  RH  028%=      5-min Rain = 0
KSP2 182130Z 22010G16KT 29/09 A2962 RMK A01 T02930094  RH  029%=      5-min Rain = 0
KSP2 182131Z 22014KT 29/09 A2962 RMK A01 T02940090  RH  028%=      5-min Rain = 0
KSP2 182132Z 21014KT 29/09 A2962 RMK A01 T02940089  RH  028%=      5-min Rain = 0
KSP2 182133Z 20017G23KT 30/09 A2962 RMK A01 T02970088  RH  027%=      5-min Rain = 0
KSP2 182134Z 20017G22KT 30/09 A2962 RMK A01 T03000087  RH  027%=      5-min Rain = 0
KSP2 182135Z 20015KT 30/09 A2962 RMK A01 T03020088  RH  026%=      5-min Rain = 0
KSP2 182136Z 21015KT 30/09 A2962 RMK A01 T03040087  RH  026%=      5-min Rain = 0
KSP2 182137Z 22014G19KT 31/09 A2962 RMK A01 T03060088  RH  026%=      5-min Rain = 0
KSP2 182138Z 21017KT 31/09 A2962 RMK A01 T03080090  RH  026%=      5-min Rain = 0
KSP2 182139Z 20017G22KT 31/08 A2962 RMK A01 T03060084  RH  025%=      5-min Rain = 0
KSP2 182140Z 20015KT 31/09 A2962 RMK A01 T03050085  RH  025%=      5-min Rain = 0
KSP2 182141Z 21017G23KT 30/09 A2962 RMK A01 T03040087  RH  026%=      5-min Rain = 0
KSP2 182142Z 21016KT 30/09 A2962 RMK A01 T03040086  RH  026%=      5-min Rain = 0
KSP2 182143Z 21014KT 30/09 A2962 RMK A01 T03030086  RH  026%=      5-min Rain = 0
KSP2 182144Z 22015G20KT 30/09 A2962 RMK A01 T03020088  RH  026%=      5-min Rain = 0
KSP2 182145Z 23015KT 30/09 A2962 RMK A01 T03020085  RH  026%=      5-min Rain = 0
KSP2 182146Z 23016KT 30/09 A2962 RMK A01 T03020085  RH  026%=      5-min Rain = 0
KSP2 182147Z 23015KT 30/08 A2962 RMK A01 T03020082  RH  025%=      5-min Rain = 0
KSP2 182148Z 23013KT 30/08 A2962 RMK A01 T03010084  RH  026%=      5-min Rain = 0
KSP2 182149Z 23013KT 30/08 A2962 RMK A01 T03020083  RH  026%=      5-min Rain = 0
KSP2 182150Z 22010KT 30/08 A2962 RMK A01 T03020082  RH  025%=      5-min Rain = 0
KSP2 182151Z 22009G14KT 30/08 A2962 RMK A01 T03020084  RH  026%=      5-min Rain = 0
KSP2 182152Z 22012KT 30/09 A2962 RMK A01 T03040087  RH  026%=      5-min Rain = 0
KSP2 182153Z 23014KT 31/08 A2962 RMK A01 T03060084  RH  025%=      5-min Rain = 0
KSP2 182154Z 22015G23KT 31/08 A2963 RMK A01 T03060083  RH  025%=      5-min Rain = 0
KSP2 182155Z 22015G20KT 30/08 A2962 RMK A01 T03040079  RH  024%=      5-min Rain = 0
KSP2 182156Z 23017KT 30/08 A2962 RMK A01 T03020077  RH  024%=      5-min Rain = 0
KSP2 182157Z 23014G19KT 30/08 A2962 RMK A01 T03010075  RH  024%=      5-min Rain = 0
KSP2 182158Z 23016KT 30/08 A2962 RMK A01 T03000076  RH  025%=      5-min Rain = 0
KSP2 182159Z 24015KT 30/08 A2962 RMK A01 T02990075  RH  025%=      5-min Rain = 0
KSP2 182200Z 24014KT 30/07 A2962 RMK A01 T02960074  RH  025%=      5-min Rain = 0
KSP2 182201Z 23011KT 30/08 A2962 RMK A01 T02960076  RH  025%=      5-min Rain = 0
KSP2 182202Z 23013KT 30/08 A2962 RMK A01 T02980077  RH  025%=      5-min Rain = 0
KSP2 182203Z 22014G19KT 30/08 A2962 RMK A01 T02990075  RH  025%=      5-min Rain = 0
KSP2 182204Z 22014KT 30/08 A2962 RMK A01 T02990076  RH  025%=      5-min Rain = 0
KSP2 182205Z 23011G16KT 30/08 A2962 RMK A01 T02990077  RH  025%=      5-min Rain = 0
KSP2 182206Z 22011G16KT 30/08 A2962 RMK A01 T03000077  RH  025%=      5-min Rain = 0
KSP2 182207Z 22015G20KT 30/07 A2962 RMK A01 T03010072  RH  024%=      5-min Rain = 0
KSP2 182208Z 22016KT 30/07 A2962 RMK A01 T03010071  RH  024%=      5-min Rain = 0
KSP2 182209Z 22017KT 30/07 A2962 RMK A01 T03010068  RH  023%=      5-min Rain = 0
KSP2 182210Z 22016G21KT 30/06 A2962 RMK A01 T03000063  RH  023%=      5-min Rain = 0
KSP2 182211Z 23013KT 30/06 A2962 RMK A01 T02990061  RH  022%=      5-min Rain = 0
KSP2 182212Z 22014KT 30/06 A2962 RMK A01 T02980063  RH  023%=      5-min Rain = 0
KSP2 182213Z 21013KT 30/07 A2962 RMK A01 T02990066  RH  023%=      5-min Rain = 0
KSP2 182214Z 22015KT 30/06 A2962 RMK A01 T02990064  RH  023%=      5-min Rain = 0
KSP2 182215Z 22012KT 30/06 A2962 RMK A01 T02990064  RH  023%=      5-min Rain = 0
KSP2 182216Z 22012G18KT 30/06 A2962 RMK A01 T02980064  RH  023%=      5-min Rain = 0
KSP2 182217Z 23011KT 30/06 A2962 RMK A01 T02980062  RH  023%=      5-min Rain = 0
KSP2 182218Z 22010KT 30/06 A2962 RMK A01 T02980062  RH  023%=      5-min Rain = 0
KSP2 182219Z 23010KT 30/06 A2962 RMK A01 T02990064  RH  023%=      5-min Rain = 0
KSP2 182220Z 23012KT 30/06 A2962 RMK A01 T03000062  RH  022%=      5-min Rain = 0
KSP2 182221Z 21015KT 30/06 A2962 RMK A01 T02990062  RH  022%=      5-min Rain = 0
KSP2 182222Z 21015G20KT 30/06 A2962 RMK A01 T03000063  RH  023%=      5-min Rain = 0
KSP2 182223Z 21015KT 30/06 A2962 RMK A01 T03000061  RH  022%=      5-min Rain = 0
KSP2 182224Z 21014KT 30/06 A2962 RMK A01 T02990062  RH  023%=      5-min Rain = 0
KSP2 182225Z 20015KT 30/06 A2962 RMK A01 T02980062  RH  023%=      5-min Rain = 0
KSP2 182226Z 21011G16KT 30/06 A2962 RMK A01 T02980063  RH  023%=      5-min Rain = 0
KSP2 182227Z 21015G20KT 30/06 A2962 RMK A01 T02980063  RH  023%=      5-min Rain = 0
KSP2 182228Z 22017KT 30/06 A2962 RMK A01 T02990061  RH  022%=      5-min Rain = 0
KSP2 182229Z 22017KT 30/06 A2962 RMK A01 T02980061  RH  022%=      5-min Rain = 0
KSP2 182230Z 22014G19KT 30/06 A2962 RMK A01 T02970060  RH  022%=      5-min Rain = 0
KSP2 182231Z 23012G18KT 30/06 A2962 RMK A01 T02970060  RH  022%=      5-min Rain = 0
KSP2 182232Z 22012KT 30/06 A2962 RMK A01 T02970059  RH  022%=      5-min Rain = 0
KSP2 182233Z 21016KT 30/06 A2963 RMK A01 T02960056  RH  022%=      5-min Rain = 0
KSP2 182234Z 22012G17KT 30/05 A2962 RMK A01 T02960053  RH  022%=      5-min Rain = 0
KSP2 182235Z 21015G21KT 30/06 A2962 RMK A01 T02960057  RH  022%=      5-min Rain = 0
KSP2 182236Z 22016KT 30/05 A2962 RMK A01 T02950054  RH  022%=      5-min Rain = 0
KSP2 182237Z 23014KT 29/06 A2962 RMK A01 T02940055  RH  022%=      5-min Rain = 0
KSP2 182238Z 22010G15KT 29/06 A2962 RMK A01 T02940057  RH  022%=      5-min Rain = 0
KSP2 182239Z 20015KT 30/06 A2962 RMK A01 T02950059  RH  023%=      5-min Rain = 0
KSP2 182240Z 22015G21KT 30/06 A2962 RMK A01 T02950058  RH  022%=      5-min Rain = 0
KSP2 182241Z 22014G20KT 29/06 A2962 RMK A01 T02940055  RH  022%=      5-min Rain = 0
KSP2 182242Z 22013KT 29/06 A2963 RMK A01 T02940055  RH  022%=      5-min Rain = 0
KSP2 182243Z 22013KT 29/06 A2963 RMK A01 T02930056  RH  022%=      5-min Rain = 0
KSP2 182244Z 22013KT 29/06 A2963 RMK A01 T02940057  RH  022%=      5-min Rain = 0
KSP2 182245Z 21012KT 29/06 A2963 RMK A01 T02930059  RH  023%=      5-min Rain = 0
KSP2 182246Z 21013KT 29/06 A2962 RMK A01 T02930061  RH  023%=      5-min Rain = 0
KSP2 182247Z 22012KT 29/06 A2963 RMK A01 T02920062  RH  023%=      5-min Rain = 0
KSP2 182248Z 22012G18KT 29/06 A2963 RMK A01 T02920064  RH  024%=      5-min Rain = 0
KSP2 182249Z 22013KT 29/06 A2963 RMK A01 T02920063  RH  024%=      5-min Rain = 0
KSP2 182250Z 22012KT 29/06 A2963 RMK A01 T02910063  RH  024%=      5-min Rain = 0
KSP2 182251Z 22013KT 29/06 A2963 RMK A01 T02910064  RH  024%=      5-min Rain = 0
KSP2 182252Z 23012KT 29/06 A2963 RMK A01 T02910063  RH  024%=      5-min Rain = 0
KSP2 182253Z 24013KT 29/06 A2963 RMK A01 T02910063  RH  024%=      5-min Rain = 0
KSP2 182254Z 23012KT 29/06 A2963 RMK A01 T02910063  RH  024%=      5-min Rain = 0
KSP2 182255Z 22009G14KT 29/06 A2963 RMK A01 T02900064  RH  024%=      5-min Rain = 0
KSP2 182256Z 23011KT 29/07 A2963 RMK A01 T02900066  RH  024%=      5-min Rain = 0
KSP2 182257Z 22010G15KT 29/07 A2963 RMK A01 T02900067  RH  025%=      5-min Rain = 0
KSP2 182258Z 22011KT 29/07 A2963 RMK A01 T02900068  RH  025%=      5-min Rain = 0
KSP2 182259Z 22009G14KT 29/07 A2963 RMK A01 T02890068  RH  025%=      5-min Rain = 0
KSP2 182300Z 22009KT 29/07 A2963 RMK A01 T02890070  RH  025%=      5-min Rain = 0
KSP2 182301Z 23010KT 29/07 A2963 RMK A01 T02890070  RH  025%=      5-min Rain = 0
KSP2 182302Z 22010KT 29/07 A2963 RMK A01 T02890072  RH  025%=      5-min Rain = 0
KSP2 182303Z 21012KT 29/07 A2963 RMK A01 T02890073  RH  026%=      5-min Rain = 0
KSP2 182304Z 22012KT 29/07 A2963 RMK A01 T02880074  RH  026%=      5-min Rain = 0
KSP2 182305Z 23012KT 29/07 A2963 RMK A01 T02860074  RH  026%=      5-min Rain = 0
KSP2 182306Z 22011KT 29/07 A2963 RMK A01 T02860074  RH  026%=      5-min Rain = 0
KSP2 182307Z 22010KT 29/08 A2963 RMK A01 T02860075  RH  026%=      5-min Rain = 0
KSP2 182308Z 22010KT 29/08 A2963 RMK A01 T02850075  RH  027%=      5-min Rain = 0
KSP2 182309Z 22010KT 29/08 A2963 RMK A01 T02850075  RH  027%=      5-min Rain = 0
KSP2 182310Z 22013KT 29/07 A2963 RMK A01 T02850074  RH  026%=      5-min Rain = 0
KSP2 182311Z 22013KT 29/07 A2963 RMK A01 T02850073  RH  026%=      5-min Rain = 0
KSP2 182312Z 22013KT 28/07 A2963 RMK A01 T02840072  RH  026%=      5-min Rain = 0
KSP2 182313Z 21010G15KT 28/07 A2963 RMK A01 T02840074  RH  027%=      5-min Rain = 0
KSP2 182314Z 21012KT 28/08 A2963 RMK A01 T02830075  RH  027%=      5-min Rain = 0
KSP2 182315Z 21011KT 28/08 A2963 RMK A01 T02830075  RH  027%=      5-min Rain = 0
KSP2 182316Z 22012KT 28/08 A2963 RMK A01 T02820075  RH  027%=      5-min Rain = 0
KSP2 182317Z 22012KT 28/07 A2963 RMK A01 T02820073  RH  027%=      5-min Rain = 0
KSP2 182318Z 23012KT 28/07 A2963 RMK A01 T02810072  RH  027%=      5-min Rain = 0
KSP2 182319Z 22012G17KT 28/07 A2963 RMK A01 T02810071  RH  027%=      5-min Rain = 0
KSP2 182320Z 22010KT 28/07 A2963 RMK A01 T02810072  RH  027%=      5-min Rain = 0
KSP2 182321Z 22008KT 28/07 A2963 RMK A01 T02800072  RH  027%=      5-min Rain = 0
KSP2 182322Z 23009KT 28/07 A2963 RMK A01 T02790072  RH  027%=      5-min Rain = 0
KSP2 182323Z 23009KT 28/07 A2963 RMK A01 T02770072  RH  027%=      5-min Rain = 0
KSP2 182324Z 23008KT 28/07 A2963 RMK A01 T02750073  RH  028%=      5-min Rain = 0
KSP2 182325Z 23009KT 27/07 A2963 RMK A01 T02730073  RH  028%=      5-min Rain = 0
KSP2 182326Z 22010KT 27/07 A2963 RMK A01 T02720073  RH  028%=      5-min Rain = 0
KSP2 182327Z 22009KT 27/07 A2963 RMK A01 T02710073  RH  029%=      5-min Rain = 0
KSP2 182328Z 22008KT 27/07 A2963 RMK A01 T02690073  RH  029%=      5-min Rain = 0
KSP2 182329Z 22008KT 27/07 A2963 RMK A01 T02680074  RH  029%=      5-min Rain = 0
KSP2 182330Z 22009KT 27/07 A2963 RMK A01 T02660074  RH  030%=      5-min Rain = 0
KSP2 182331Z 22009KT 27/08 A2963 RMK A01 T02650075  RH  030%=      5-min Rain = 0
KSP2 182332Z 22009KT 27/08 A2963 RMK A01 T02650076  RH  030%=      5-min Rain = 0
KSP2 182333Z 21008KT 26/08 A2963 RMK A01 T02630076  RH  030%=      5-min Rain = 0
KSP2 182334Z 22009KT 26/08 A2963 RMK A01 T02620077  RH  031%=      5-min Rain = 0
KSP2 182335Z 21009KT 26/08 A2963 RMK A01 T02620077  RH  031%=      5-min Rain = 0
KSP2 182336Z 21009KT 26/08 A2963 RMK A01 T02610077  RH  031%=      5-min Rain = 0
KSP2 182337Z 21009KT 26/08 A2963 RMK A01 T02610078  RH  031%=      5-min Rain = 0
KSP2 182338Z 21009KT 26/08 A2963 RMK A01 T02620078  RH  031%=      5-min Rain = 0
KSP2 182339Z 21009KT 26/08 A2963 RMK A01 T02620079  RH  031%=      5-min Rain = 0
KSP2 182340Z 21010KT 26/08 A2963 RMK A01 T02620078  RH  031%=      5-min Rain = 0
KSP2 182341Z 21009KT 26/08 A2963 RMK A01 T02620079  RH  031%=      5-min Rain = 0
KSP2 182342Z 21009KT 26/08 A2963 RMK A01 T02610080  RH  032%=      5-min Rain = 0
KSP2 182343Z 22008KT 26/08 A2963 RMK A01 T02600080  RH  032%=      5-min Rain = 0
KSP2 182344Z 21008KT 26/08 A2963 RMK A01 T02590080  RH  032%=      5-min Rain = 0
KSP2 182345Z 22007KT 26/08 A2963 RMK A01 T02580080  RH  032%=      5-min Rain = 0
KSP2 182346Z 22007KT 26/08 A2963 RMK A01 T02580080  RH  032%=      5-min Rain = 0
KSP2 182347Z 22008KT 26/08 A2963 RMK A01 T02570080  RH  033%=      5-min Rain = 0
KSP2 182348Z 22007KT 26/08 A2963 RMK A01 T02560080  RH  033%=      5-min Rain = 0
KSP2 182349Z 22007KT 26/08 A2963 RMK A01 T02560080  RH  033%=      5-min Rain = 0
KSP2 182350Z 22007KT 26/08 A2963 RMK A01 T02550080  RH  033%=      5-min Rain = 0
KSP2 182351Z 22007KT 25/08 A2963 RMK A01 T02540080  RH  033%=      5-min Rain = 0
KSP2 182352Z 22007KT 25/08 A2963 RMK A01 T02530079  RH  033%=      5-min Rain = 0
KSP2 182353Z 23008KT 25/08 A2963 RMK A01 T02530079  RH  033%=      5-min Rain = 0
KSP2 182354Z 23008KT 25/08 A2963 RMK A01 T02520079  RH  033%=      5-min Rain = 0
KSP2 182355Z 22007KT 25/08 A2963 RMK A01 T02510078  RH  033%=      5-min Rain = 0
KSP2 182356Z 22008KT 25/08 A2963 RMK A01 T02510078  RH  033%=      5-min Rain = 0
KSP2 182357Z 23008KT 25/08 A2963 RMK A01 T02510077  RH  033%=      5-min Rain = 0
KSP2 182358Z 23007KT 25/08 A2963 RMK A01 T02500077  RH  033%=      5-min Rain = 0
KSP2 182359Z 23008KT 25/08 A2963 RMK A01 T02490077  RH  033%=      5-min Rain = 0
KSP2 190000Z 23008KT 25/08 A2963 RMK A01 T02490077  RH  033%=      5-min Rain = 0
KSP2 190001Z 23008KT 25/08 A2963 RMK A01 T02480077  RH  033%=      5-min Rain = 0
KSP2 190002Z 23007KT 25/08 A2963 RMK A01 T02480077  RH  034%=      5-min Rain = 0
KSP2 190003Z 23008KT 25/08 A2963 RMK A01 T02470076  RH  034%=      5-min Rain = 0
KSP2 190004Z 23008KT 25/08 A2963 RMK A01 T02470076  RH  034%=      5-min Rain = 0
KSP2 190005Z 23008KT 25/08 A2963 RMK A01 T02460076  RH  034%=      5-min Rain = 0
KSP2 190006Z 23008KT 25/08 A2963 RMK A01 T02450076  RH  034%=      5-min Rain = 0
KSP2 190007Z 24007KT 25/08 A2963 RMK A01 T02450076  RH  034%=      5-min Rain = 0
KSP2 190008Z 24008KT 24/08 A2963 RMK A01 T02440076  RH  034%=      5-min Rain = 0
KSP2 190009Z 24008KT 24/08 A2963 RMK A01 T02440076  RH  034%=      5-min Rain = 0
KSP2 190010Z 24007KT 24/08 A2963 RMK A01 T02440076  RH  034%=      5-min Rain = 0
KSP2 190011Z 24007KT 24/08 A2963 RMK A01 T02430076  RH  034%=      5-min Rain = 0
KSP2 190012Z 23007KT 24/08 A2963 RMK A01 T02420076  RH  035%=      5-min Rain = 0
KSP2 190013Z 23007KT 24/08 A2964 RMK A01 T02410077  RH  035%=      5-min Rain = 0
KSP2 190014Z 23007KT 24/08 A2964 RMK A01 T02390077  RH  035%=      5-min Rain = 0
KSP2 190015Z 23006KT 24/08 A2964 RMK A01 T02380077  RH  036%=      5-min Rain = 0
KSP2 190016Z 23006KT 24/08 A2963 RMK A01 T02370077  RH  036%=      5-min Rain = 0
KSP2 190017Z 23006KT 24/08 A2963 RMK A01 T02360078  RH  036%=      5-min Rain = 0
KSP2 190018Z 23005KT 24/08 A2964 RMK A01 T02350077  RH  036%=      5-min Rain = 0
KSP2 190019Z 23005KT 23/08 A2964 RMK A01 T02340078  RH  037%=      5-min Rain = 0
KSP2 190020Z 23006KT 23/08 A2964 RMK A01 T02330078  RH  037%=      5-min Rain = 0
KSP2 190021Z 23005KT 23/08 A2964 RMK A01 T02320078  RH  037%=      5-min Rain = 0
KSP2 190022Z 24005KT 23/08 A2964 RMK A01 T02310078  RH  038%=      5-min Rain = 0
KSP2 190023Z 24004KT 23/08 A2964 RMK A01 T02290078  RH  038%=      5-min Rain = 0
KSP2 190024Z 24004KT 23/08 A2964 RMK A01 T02280079  RH  038%=      5-min Rain = 0
KSP2 190025Z 24003KT 23/08 A2964 RMK A01 T02270079  RH  039%=      5-min Rain = 0
KSP2 190026Z 24003KT 23/08 A2964 RMK A01 T02250079  RH  039%=      5-min Rain = 0
KSP2 190027Z 23003KT 22/08 A2964 RMK A01 T02230080  RH  040%=      5-min Rain = 0
KSP2 190028Z 23004KT 22/08 A2964 RMK A01 T02210082  RH  041%=      5-min Rain = 0
KSP2 190029Z 23003KT 22/08 A2964 RMK A01 T02180082  RH  042%=      5-min Rain = 0
KSP2 190030Z 25003KT 22/08 A2964 RMK A01 T02160080  RH  041%=      5-min Rain = 0
KSP2 190031Z 24003KT 22/08 A2964 RMK A01 T02160079  RH  041%=      5-min Rain = 0
KSP2 190032Z 23004KT 22/08 A2964 RMK A01 T02150079  RH  042%=      5-min Rain = 0
KSP2 190033Z 23004KT 22/08 A2964 RMK A01 T02150081  RH  042%=      5-min Rain = 0
KSP2 190034Z 23005KT 21/08 A2964 RMK A01 T02140081  RH  042%=      5-min Rain = 0
KSP2 190035Z 24005KT 21/08 A2964 RMK A01 T02130080  RH  042%=      5-min Rain = 0
KSP2 190036Z 23004KT 21/08 A2964 RMK A01 T02120080  RH  043%=      5-min Rain = 0
KSP2 190037Z 23004KT 21/08 A2964 RMK A01 T02100081  RH  043%=      5-min Rain = 0
KSP2 190038Z 23004KT 21/08 A2964 RMK A01 T02080081  RH  044%=      5-min Rain = 0
KSP2 190039Z 23004KT 21/08 A2964 RMK A01 T02070081  RH  044%=      5-min Rain = 0
KSP2 190040Z 22005KT 21/08 A2964 RMK A01 T02060081  RH  044%=      5-min Rain = 0
KSP2 190041Z 22005KT 21/08 A2964 RMK A01 T02060081  RH  045%=      5-min Rain = 0
KSP2 190042Z 22006KT 20/08 A2964 RMK A01 T02040081  RH  045%=      5-min Rain = 0
KSP2 190043Z 22006KT 20/08 A2964 RMK A01 T02020081  RH  046%=      5-min Rain = 0
KSP2 190044Z 22006KT 20/08 A2964 RMK A01 T02010081  RH  046%=      5-min Rain = 0
KSP2 190045Z 22007KT 20/08 A2964 RMK A01 T02010082  RH  046%=      5-min Rain = 0
KSP2 190046Z 22007KT 20/08 A2964 RMK A01 T02000082  RH  047%=      5-min Rain = 0
KSP2 190047Z 21006KT 20/08 A2964 RMK A01 T01990081  RH  047%=      5-min Rain = 0
KSP2 190048Z 21006KT 20/08 A2964 RMK A01 T01990081  RH  047%=      5-min Rain = 0
KSP2 190049Z 21007KT 20/08 A2964 RMK A01 T01990082  RH  047%=      5-min Rain = 0
KSP2 190050Z 21008KT 20/08 A2964 RMK A01 T01970082  RH  047%=      5-min Rain = 0
KSP2 190051Z 21008KT 20/08 A2964 RMK A01 T01970082  RH  048%=      5-min Rain = 0
KSP2 190052Z 21008KT 20/08 A2964 RMK A01 T01960082  RH  048%=      5-min Rain = 0
KSP2 190053Z 21007KT 20/08 A2964 RMK A01 T01970082  RH  047%=      5-min Rain = 0
KSP2 190054Z 21008KT 20/08 A2964 RMK A01 T01980083  RH  047%=      5-min Rain = 0
KSP2 190055Z 21008KT 20/08 A2964 RMK A01 T01990084  RH  047%=      5-min Rain = 0
KSP2 190056Z 22008KT 20/08 A2964 RMK A01 T02010083  RH  047%=      5-min Rain = 0
KSP2 190057Z 21008KT 20/08 A2964 RMK A01 T02020083  RH  046%=      5-min Rain = 0
KSP2 190058Z 21008KT 20/08 A2964 RMK A01 T02030083  RH  046%=      5-min Rain = 0
KSP2 190059Z 22007KT 20/08 A2964 RMK A01 T02040083  RH  046%=      5-min Rain = 0
KSP2 190100Z 22006KT 20/08 A2964 RMK A01 T02040083  RH  045%=      5-min Rain = 0
KSP2 190101Z 22006KT 21/08 A2965 RMK A01 T02050083  RH  045%=      5-min Rain = 0
KSP2 190102Z 22005KT 20/08 A2965 RMK A01 T02040084  RH  046%=      5-min Rain = 0
KSP2 190103Z 22004KT 20/08 A2965 RMK A01 T02020083  RH  046%=      5-min Rain = 0
KSP2 190104Z 22004KT 20/08 A2965 RMK A01 T02010083  RH  047%=      5-min Rain = 0
KSP2 190105Z 23004KT 20/08 A2965 RMK A01 T01990084  RH  048%=      5-min Rain = 0
KSP2 190106Z 23004KT 20/08 A2965 RMK A01 T01970084  RH  048%=      5-min Rain = 0
KSP2 190107Z 22005KT 20/08 A2965 RMK A01 T01970084  RH  048%=      5-min Rain = 0
KSP2 190108Z 23004KT 20/08 A2965 RMK A01 T01970084  RH  048%=      5-min Rain = 0
KSP2 190109Z 23004KT 20/08 A2965 RMK A01 T01970084  RH  048%=      5-min Rain = 0
KSP2 190110Z 23003KT 20/09 A2965 RMK A01 T01960086  RH  049%=      5-min Rain = 0
KSP2 190111Z 24003KT 20/09 A2965 RMK A01 T01950085  RH  049%=      5-min Rain = 0
KSP2 190112Z 28004G9KT 19/09 A2965 RMK A01 T01930085  RH  050%=      5-min Rain = 0
KSP2 190113Z 30011KT 19/09 A2965 RMK A01 T01900088  RH  051%=      5-min Rain = 0
KSP2 190114Z 27008KT 19/09 A2965 RMK A01 T01880086  RH  052%=      5-min Rain = 0
KSP2 190115Z 28008KT 19/09 A2965 RMK A01 T01890087  RH  051%=      5-min Rain = 0
KSP2 190116Z 27008KT 19/09 A2965 RMK A01 T01900087  RH  051%=      5-min Rain = 0
KSP2 190117Z 26009KT 19/09 A2965 RMK A01 T01910088  RH  051%=      5-min Rain = 0
KSP2 190118Z 26009KT 19/09 A2965 RMK A01 T01920087  RH  051%=      5-min Rain = 0
KSP2 190119Z 26008KT 19/09 A2966 RMK A01 T01930086  RH  050%=      5-min Rain = 0
KSP2 190120Z 26008KT 20/09 A2966 RMK A01 T01950086  RH  049%=      5-min Rain = 0
KSP2 190121Z 26007KT 20/09 A2966 RMK A01 T01960086  RH  049%=      5-min Rain = 0
KSP2 190122Z 26007KT 20/09 A2966 RMK A01 T01970086  RH  049%=      5-min Rain = 0
KSP2 190123Z 26006KT 20/09 A2966 RMK A01 T01980086  RH  048%=      5-min Rain = 0
KSP2 190124Z 26006KT 20/09 A2966 RMK A01 T01970086  RH  049%=      5-min Rain = 0
KSP2 190125Z 27008KT 20/09 A2967 RMK A01 T01970087  RH  049%=      5-min Rain = 0
KSP2 190126Z 29018G27KT 20/09 A2967 RMK A01 T01960086  RH  049%=      5-min Rain = 0
KSP2 190127Z 29016G24KT 20/08 A2967 RMK A01 T02010082  RH  046%=      5-min Rain = 0
KSP2 190128Z 28012KT 21/08 A2968 RMK A01 T02070083  RH  045%=      5-min Rain = 0
KSP2 190129Z 27013KT 21/08 A2968 RMK A01 T02080083  RH  044%=      5-min Rain = 0
KSP2 190130Z 27013KT 21/08 A2968 RMK A01 T02100081  RH  043%=      5-min Rain = 0
KSP2 190131Z 27013G18KT 21/08 A2968 RMK A01 T02110080  RH  043%=      5-min Rain = 0
KSP2 190132Z 27014KT 21/08 A2968 RMK A01 T02120079  RH  042%=      5-min Rain = 0
KSP2 190133Z 27015KT 21/08 A2969 RMK A01 T02140078  RH  042%=      5-min Rain = 0
KSP2 190134Z 26016KT 22/08 A2969 RMK A01 T02150078  RH  041%=      5-min Rain = 0
KSP2 190135Z 25015KT 22/08 A297 RMK A01 T02160079  RH  041%=      5-min Rain = 0
KSP2 190136Z 25015KT 22/08 A297 RMK A01 T02160079  RH  041%=      5-min Rain = 0
KSP2 190137Z 24016KT 22/08 A297 RMK A01 T02160078  RH  041%=      5-min Rain = 0
KSP2 190138Z 24015G20KT 22/08 A2971 RMK A01 T02160079  RH  041%=      5-min Rain = 0
KSP2 190139Z 24020G25KT 22/08 A2971 RMK A01 T02160080  RH  041%=      5-min Rain = 0
KSP2 190140Z 25026G33KT 22/09 A2971 RMK A01 T02160086  RH  043%=      5-min Rain = 0
KSP2 190141Z 25028KT 21/10 A2971 RMK A01 T02100102  RH  050%=      5-min Rain = 0
KSP2 190142Z 26026KT 20/11 A2971 RMK A01 T01980110  RH  057%=      5-min Rain = 0
KSP2 190143Z 26027G33KT 19/11 A2971 RMK A01 T01880112  RH  061%=      5-min Rain = 0
KSP2 190144Z 27023G28KT 18/11 A2971 RMK A01 T01830113  RH  064%=      5-min Rain = 0
KSP2 190145Z 27024G31KT 18/11 A2971 RMK A01 T01800113  RH  065%=      5-min Rain = 0
KSP2 190146Z 27022G27KT 18/11 A2971 RMK A01 T01790114  RH  066%=      5-min Rain = 0
KSP2 190147Z 28024KT 18/12 A2971 RMK A01 T01780115  RH  067%=      5-min Rain = 0
KSP2 190148Z 28023G29KT 18/11 A2971 RMK A01 T01780113  RH  066%=      5-min Rain = 0
KSP2 190149Z 28020G25KT 18/12 A2971 RMK A01 T01780115  RH  066%=      5-min Rain = 0.01
KSP2 190150Z 29019G24KT 18/11 A297 RMK A01 T01780114  RH  066%=      5-min Rain = 0
KSP2 190151Z 29018G23KT 18/12 A2971 RMK A01 T01780115  RH  067%=      5-min Rain = 0
KSP2 190152Z 29018KT 18/12 A2971 RMK A01 T01780115  RH  067%=      5-min Rain = 0
KSP2 190153Z 29017KT 18/11 A2971 RMK A01 T01780113  RH  065%=      5-min Rain = 0
KSP2 190154Z 29017KT 18/11 A2971 RMK A01 T01800113  RH  065%=      5-min Rain = 0
KSP2 190155Z 28015KT 18/12 A2971 RMK A01 T01800115  RH  066%=      5-min Rain = 0
KSP2 190156Z 28015KT 18/11 A2971 RMK A01 T01790114  RH  066%=      5-min Rain = 0
KSP2 190157Z 28014KT 18/11 A2971 RMK A01 T01790113  RH  065%=      5-min Rain = 0
KSP2 190158Z 29015KT 18/11 A2971 RMK A01 T01800112  RH  065%=      5-min Rain = 0
KSP2 190159Z 29013KT 18/11 A297 RMK A01 T01800111  RH  064%=      5-min Rain = 0
KSP2 190200Z 29012KT 18/11 A297 RMK A01 T01810112  RH  064%=      5-min Rain = 0
KSP2 190201Z 30010KT 18/11 A297 RMK A01 T01810114  RH  065%=      5-min Rain = 0
KSP2 190202Z 29010KT 18/11 A297 RMK A01 T01800113  RH  065%=      5-min Rain = 0
KSP2 190203Z 29009KT 18/11 A297 RMK A01 T01790114  RH  066%=      5-min Rain = 0
KSP2 190204Z 29009KT 18/11 A297 RMK A01 T01790114  RH  066%=      5-min Rain = 0
KSP2 190205Z 28010KT 18/11 A297 RMK A01 T01780114  RH  066%=      5-min Rain = 0
KSP2 190206Z 28010KT 18/12 A2971 RMK A01 T01770115  RH  067%=      5-min Rain = 0
KSP2 190207Z 27010KT 18/11 A2971 RMK A01 T01760114  RH  067%=      5-min Rain = 0
KSP2 190208Z 28010KT 18/11 A2971 RMK A01 T01760114  RH  067%=      5-min Rain = 0
KSP2 190209Z 28009KT 18/11 A2971 RMK A01 T01760113  RH  067%=      5-min Rain = 0
KSP2 190210Z 28009KT 18/11 A2971 RMK A01 T01760113  RH  067%=      5-min Rain = 0
KSP2 190211Z 28009KT 18/11 A2971 RMK A01 T01760114  RH  067%=      5-min Rain = 0
KSP2 190212Z 28008KT 18/11 A297 RMK A01 T01750114  RH  067%=      5-min Rain = 0
KSP2 190213Z 28008KT 18/11 A297 RMK A01 T01750112  RH  067%=      5-min Rain = 0
KSP2 190214Z 28009KT 18/11 A297 RMK A01 T01750113  RH  067%=      5-min Rain = 0
KSP2 190215Z 28009KT 18/11 A297 RMK A01 T01750110  RH  066%=      5-min Rain = 0
KSP2 190216Z 28008KT 18/11 A297 RMK A01 T01760111  RH  066%=      5-min Rain = 0
KSP2 190217Z 27007KT 18/11 A297 RMK A01 T01760111  RH  066%=      5-min Rain = 0
KSP2 190218Z 28009KT 18/11 A297 RMK A01 T01750111  RH  066%=      5-min Rain = 0
KSP2 190219Z 28009KT 18/11 A297 RMK A01 T01750110  RH  066%=      5-min Rain = 0
KSP2 190220Z 28009KT 17/11 A297 RMK A01 T01740108  RH  065%=      5-min Rain = 0
KSP2 190221Z 28008KT 17/11 A297 RMK A01 T01740108  RH  065%=      5-min Rain = 0
KSP2 190222Z 29008KT 18/11 A297 RMK A01 T01750108  RH  065%=      5-min Rain = 0
KSP2 190223Z 29008KT 18/11 A297 RMK A01 T01750107  RH  065%=      5-min Rain = 0
KSP2 190224Z 29008KT 18/11 A297 RMK A01 T01750107  RH  064%=      5-min Rain = 0
KSP2 190225Z 29009KT 18/11 A297 RMK A01 T01750107  RH  064%=      5-min Rain = 0
KSP2 190226Z 29009KT 18/11 A297 RMK A01 T01760106  RH  064%=      5-min Rain = 0
KSP2 190227Z 29010KT 18/11 A297 RMK A01 T01760105  RH  063%=      5-min Rain = 0
KSP2 190228Z 29011KT 18/10 A297 RMK A01 T01770104  RH  062%=      5-min Rain = 0
KSP2 190229Z 30010KT 18/10 A297 RMK A01 T01780103  RH  061%=      5-min Rain = 0
KSP2 190230Z 30010KT 18/10 A297 RMK A01 T01790103  RH  061%=      5-min Rain = 0
KSP2 190231Z 30010KT 18/10 A297 RMK A01 T01790103  RH  061%=      5-min Rain = 0
KSP2 190232Z 30012KT 18/10 A297 RMK A01 T01790103  RH  061%=      5-min Rain = 0
KSP2 190233Z 31010KT 18/10 A297 RMK A01 T01790103  RH  061%=      5-min Rain = 0
KSP2 190234Z 30010KT 18/10 A297 RMK A01 T01790103  RH  061%=      5-min Rain = 0
KSP2 190235Z 30010KT 18/10 A297 RMK A01 T01780103  RH  061%=      5-min Rain = 0
KSP2 190236Z 31011KT 18/10 A2969 RMK A01 T01780103  RH  061%=      5-min Rain = 0
KSP2 190237Z 31009KT 18/10 A2969 RMK A01 T01780103  RH  062%=      5-min Rain = 0
KSP2 190238Z 31010KT 18/10 A2969 RMK A01 T01770103  RH  062%=      5-min Rain = 0
KSP2 190239Z 31009KT 18/10 A2969 RMK A01 T01770103  RH  062%=      5-min Rain = 0
KSP2 190240Z 31009KT 18/10 A2969 RMK A01 T01770103  RH  062%=      5-min Rain = 0
KSP2 190241Z 31009KT 18/10 A2969 RMK A01 T01770103  RH  062%=      5-min Rain = 0
KSP2 190242Z 31010KT 18/10 A2969 RMK A01 T01760103  RH  062%=      5-min Rain = 0
KSP2 190243Z 31010KT 18/10 A2969 RMK A01 T01760103  RH  062%=      5-min Rain = 0
KSP2 190244Z 31010KT 18/10 A2969 RMK A01 T01760103  RH  062%=      5-min Rain = 0
KSP2 190245Z 31009KT 18/10 A2969 RMK A01 T01760104  RH  063%=      5-min Rain = 0
KSP2 190246Z 32010KT 18/10 A2969 RMK A01 T01760104  RH  063%=      5-min Rain = 0
KSP2 190247Z 31010KT 18/10 A2969 RMK A01 T01760104  RH  063%=      5-min Rain = 0
KSP2 190248Z 31009KT 18/10 A2969 RMK A01 T01760104  RH  063%=      5-min Rain = 0
KSP2 190249Z 31010KT 18/10 A2969 RMK A01 T01750104  RH  063%=      5-min Rain = 0
KSP2 190250Z 31009KT 18/11 A2969 RMK A01 T01750105  RH  063%=      5-min Rain = 0
KSP2 190251Z 31008KT 18/11 A2969 RMK A01 T01750105  RH  063%=      5-min Rain = 0
KSP2 190252Z 31009KT 17/11 A2969 RMK A01 T01740105  RH  064%=      5-min Rain = 0
KSP2 190253Z 31008KT 17/11 A297 RMK A01 T01730105  RH  064%=      5-min Rain = 0
KSP2 190254Z 30008KT 17/11 A297 RMK A01 T01720105  RH  065%=      5-min Rain = 0
KSP2 190255Z 30009KT 17/11 A297 RMK A01 T01710105  RH  065%=      5-min Rain = 0
KSP2 190256Z 30008KT 17/10 A297 RMK A01 T01710104  RH  065%=      5-min Rain = 0
KSP2 190257Z 30008KT 17/10 A297 RMK A01 T01710104  RH  065%=      5-min Rain = 0
KSP2 190258Z 30008KT 17/10 A297 RMK A01 T01710104  RH  065%=      5-min Rain = 0
KSP2 190259Z 30008KT 17/10 A297 RMK A01 T01700104  RH  065%=      5-min Rain = 0
KSP2 190300Z 30008KT 17/10 A297 RMK A01 T01690104  RH  065%=      5-min Rain = 0
KSP2 190301Z 30007KT 17/10 A297 RMK A01 T01680104  RH  066%=      5-min Rain = 0
KSP2 190302Z 30007KT 17/10 A297 RMK A01 T01680104  RH  066%=      5-min Rain = 0
KSP2 190303Z 30007KT 17/10 A297 RMK A01 T01670104  RH  066%=      5-min Rain = 0
KSP2 190304Z 30007KT 17/10 A297 RMK A01 T01670104  RH  066%=      5-min Rain = 0
KSP2 190305Z 30007KT 17/10 A297 RMK A01 T01660104  RH  066%=      5-min Rain = 0
KSP2 190306Z 30007KT 17/10 A297 RMK A01 T01660104  RH  067%=      5-min Rain = 0
KSP2 190307Z 30007KT 17/10 A297 RMK A01 T01660104  RH  067%=      5-min Rain = 0
KSP2 190308Z 30007KT 17/10 A297 RMK A01 T01650103  RH  067%=      5-min Rain = 0
KSP2 190309Z 29006KT 17/10 A297 RMK A01 T01650103  RH  067%=      5-min Rain = 0
KSP2 190310Z 29006KT 16/10 A297 RMK A01 T01640104  RH  068%=      5-min Rain = 0
KSP2 190311Z 29006KT 16/10 A297 RMK A01 T01630103  RH  068%=      5-min Rain = 0
KSP2 190312Z 29006KT 16/10 A297 RMK A01 T01620103  RH  068%=      5-min Rain = 0
KSP2 190313Z 29006KT 16/10 A297 RMK A01 T01620103  RH  068%=      5-min Rain = 0
KSP2 190314Z 28006KT 16/10 A297 RMK A01 T01600104  RH  069%=      5-min Rain = 0
KSP2 190315Z 28006KT 16/10 A297 RMK A01 T01590104  RH  070%=      5-min Rain = 0
KSP2 190316Z 28005KT 16/10 A297 RMK A01 T01580104  RH  070%=      5-min Rain = 0
KSP2 190317Z 27006KT 16/10 A297 RMK A01 T01560104  RH  071%=      5-min Rain = 0
KSP2 190318Z 27006KT 16/10 A2971 RMK A01 T01560104  RH  071%=      5-min Rain = 0
KSP2 190319Z 27006KT 16/10 A2971 RMK A01 T01550104  RH  072%=      5-min Rain = 0
KSP2 190320Z 27006KT 15/10 A2971 RMK A01 T01540104  RH  072%=      5-min Rain = 0
KSP2 190321Z 27006KT 15/10 A2971 RMK A01 T01530104  RH  072%=      5-min Rain = 0
KSP2 190322Z 26006KT 15/10 A2971 RMK A01 T01520104  RH  073%=      5-min Rain = 0
KSP2 190323Z 26005KT 15/10 A2971 RMK A01 T01510104  RH  074%=      5-min Rain = 0
KSP2 190324Z 25005KT 15/11 A2971 RMK A01 T01490105  RH  075%=      5-min Rain = 0
KSP2 190325Z 25006KT 15/11 A2971 RMK A01 T01470105  RH  076%=      5-min Rain = 0
KSP2 190326Z 25007KT 15/11 A2971 RMK A01 T01450105  RH  077%=      5-min Rain = 0
KSP2 190327Z 24008KT 14/11 A2971 RMK A01 T01430105  RH  078%=      5-min Rain = 0
KSP2 190328Z 25008KT 14/11 A2971 RMK A01 T01420105  RH  079%=      5-min Rain = 0
KSP2 190329Z 25009KT 14/11 A2971 RMK A01 T01410105  RH  079%=      5-min Rain = 0
KSP2 190330Z 24008KT 14/11 A2971 RMK A01 T01410105  RH  079%=      5-min Rain = 0
KSP2 190331Z 24008KT 14/11 A2971 RMK A01 T01410105  RH  079%=      5-min Rain = 0
KSP2 190332Z 24008KT 14/11 A2972 RMK A01 T01410105  RH  079%=      5-min Rain = 0
KSP2 190333Z 24008KT 14/10 A2972 RMK A01 T01410104  RH  078%=      5-min Rain = 0
KSP2 190334Z 24008KT 14/10 A2972 RMK A01 T01410104  RH  078%=      5-min Rain = 0
KSP2 190335Z 24008KT 14/10 A2972 RMK A01 T01410104  RH  078%=      5-min Rain = 0
KSP2 190336Z 24008KT 14/10 A2972 RMK A01 T01410104  RH  078%=      5-min Rain = 0
KSP2 190337Z 24007KT 14/10 A2972 RMK A01 T01410104  RH  078%=      5-min Rain = 0
KSP2 190338Z 23008KT 14/10 A2972 RMK A01 T01410104  RH  078%=      5-min Rain = 0
KSP2 190339Z 22009KT 14/10 A2972 RMK A01 T01420103  RH  077%=      5-min Rain = 0
KSP2 190340Z 21011KT 14/10 A2973 RMK A01 T01430104  RH  077%=      5-min Rain = 0
KSP2 190341Z 20011KT 14/10 A2973 RMK A01 T01430104  RH  077%=      5-min Rain = 0
KSP2 190342Z 20011KT 14/10 A2973 RMK A01 T01420103  RH  078%=      5-min Rain = 0
KSP2 190343Z 20009KT 14/10 A2973 RMK A01 T01410103  RH  078%=      5-min Rain = 0
KSP2 190344Z 20010KT 14/10 A2973 RMK A01 T01410104  RH  078%=      5-min Rain = 0
KSP2 190345Z 20008KT 14/10 A2973 RMK A01 T01410104  RH  078%=      5-min Rain = 0
KSP2 190346Z 20009KT 14/10 A2973 RMK A01 T01410104  RH  078%=      5-min Rain = 0
KSP2 190347Z 20010KT 14/10 A2973 RMK A01 T01400104  RH  079%=      5-min Rain = 0
KSP2 190348Z 20008KT 14/10 A2973 RMK A01 T01410104  RH  079%=      5-min Rain = 0
KSP2 190349Z 20007KT 14/10 A2973 RMK A01 T01410104  RH  079%=      5-min Rain = 0
KSP2 190350Z 20008KT 14/11 A2973 RMK A01 T01400105  RH  079%=      5-min Rain = 0
KSP2 190351Z 20008KT 14/10 A2973 RMK A01 T01390104  RH  079%=      5-min Rain = 0
KSP2 190352Z 19008KT 14/11 A2973 RMK A01 T01390105  RH  080%=      5-min Rain = 0
KSP2 190353Z 19007KT 14/11 A2973 RMK A01 T01390105  RH  080%=      5-min Rain = 0
KSP2 190354Z 19007KT 14/11 A2973 RMK A01 T01390105  RH  080%=      5-min Rain = 0
KSP2 190355Z 18008KT 14/11 A2973 RMK A01 T01390105  RH  080%=      5-min Rain = 0
KSP2 190356Z 18007KT 14/10 A2973 RMK A01 T01380104  RH  080%=      5-min Rain = 0
KSP2 190357Z 18007KT 14/10 A2973 RMK A01 T01370104  RH  081%=      5-min Rain = 0
KSP2 190358Z 19007KT 14/10 A2973 RMK A01 T01360104  RH  081%=      5-min Rain = 0
KSP2 190359Z 19006KT 14/11 A2973 RMK A01 T01350105  RH  082%=      5-min Rain = 0
KSP2 190400Z 19007KT 14/11 A2973 RMK A01 T01350105  RH  082%=      5-min Rain = 0
KSP2 190401Z 19006KT 14/11 A2973 RMK A01 T01350105  RH  082%=      5-min Rain = 0
KSP2 190402Z 20006KT 13/11 A2973 RMK A01 T01340106  RH  083%=      5-min Rain = 0
KSP2 190403Z 20006KT 13/11 A2973 RMK A01 T01340105  RH  083%=      5-min Rain = 0
KSP2 190404Z 20006KT 13/11 A2973 RMK A01 T01340105  RH  083%=      5-min Rain = 0
KSP2 190405Z 20006KT 13/11 A2973 RMK A01 T01330105  RH  083%=      5-min Rain = 0
KSP2 190406Z 20006KT 13/10 A2973 RMK A01 T01330104  RH  083%=      5-min Rain = 0
KSP2 190407Z 21006KT 13/10 A2973 RMK A01 T01320104  RH  083%=      5-min Rain = 0
KSP2 190408Z 21007KT 13/10 A2973 RMK A01 T01310104  RH  083%=      5-min Rain = 0
KSP2 190409Z 21007KT 13/10 A2973 RMK A01 T01310104  RH  084%=      5-min Rain = 0
KSP2 190410Z 22006KT 13/10 A2973 RMK A01 T01300103  RH  084%=      5-min Rain = 0
KSP2 190411Z 21006KT 13/10 A2973 RMK A01 T01300103  RH  084%=      5-min Rain = 0
KSP2 190412Z 21006KT 13/10 A2973 RMK A01 T01290103  RH  084%=      5-min Rain = 0
KSP2 190413Z 21006KT 13/10 A2972 RMK A01 T01290103  RH  084%=      5-min Rain = 0
KSP2 190414Z 21005KT 13/10 A2972 RMK A01 T01290104  RH  084%=      5-min Rain = 0
KSP2 190415Z 21005KT 13/10 A2972 RMK A01 T01290104  RH  084%=      5-min Rain = 0
KSP2 190416Z 21006KT 13/10 A2972 RMK A01 T01300104  RH  084%=      5-min Rain = 0
KSP2 190417Z 21007KT 13/10 A2972 RMK A01 T01300104  RH  084%=      5-min Rain = 0
KSP2 190418Z 22006KT 13/10 A2972 RMK A01 T01300104  RH  084%=      5-min Rain = 0
KSP2 190419Z 22007KT 13/10 A2973 RMK A01 T01290104  RH  085%=      5-min Rain = 0
KSP2 190420Z 22008KT 13/10 A2973 RMK A01 T01290104  RH  085%=      5-min Rain = 0
KSP2 190421Z 22007KT 13/11 A2973 RMK A01 T01290105  RH  085%=      5-min Rain = 0
KSP2 190422Z 23007KT 13/10 A2973 RMK A01 T01280104  RH  086%=      5-min Rain = 0
KSP2 190423Z 23007KT 13/10 A2973 RMK A01 T01270104  RH  086%=      5-min Rain = 0
KSP2 190424Z 23007KT 13/11 A2973 RMK A01 T01260105  RH  087%=      5-min Rain = 0
KSP2 190425Z 23007KT 13/11 A2973 RMK A01 T01260105  RH  087%=      5-min Rain = 0
KSP2 190426Z 23007KT 13/11 A2973 RMK A01 T01260105  RH  087%=      5-min Rain = 0
KSP2 190427Z 23007KT 13/11 A2973 RMK A01 T01270105  RH  087%=      5-min Rain = 0
KSP2 190428Z 23007KT 13/11 A2973 RMK A01 T01280105  RH  086%=      5-min Rain = 0
KSP2 190429Z 23007KT 13/11 A2973 RMK A01 T01290106  RH  086%=      5-min Rain = 0
KSP2 190430Z 23008KT 13/11 A2973 RMK A01 T01310106  RH  085%=      5-min Rain = 0
KSP2 190431Z 23008KT 13/11 A2973 RMK A01 T01320106  RH  084%=      5-min Rain = 0
KSP2 190432Z 23008KT 13/11 A2973 RMK A01 T01330105  RH  083%=      5-min Rain = 0
KSP2 190433Z 23008KT 13/11 A2973 RMK A01 T01330105  RH  083%=      5-min Rain = 0
KSP2 190434Z 23008KT 13/11 A2973 RMK A01 T01340105  RH  083%=      5-min Rain = 0
KSP2 190435Z 23007KT 13/11 A2973 RMK A01 T01340105  RH  082%=      5-min Rain = 0
KSP2 190436Z 23007KT 14/10 A2973 RMK A01 T01350104  RH  082%=      5-min Rain = 0
KSP2 190437Z 23007KT 14/10 A2973 RMK A01 T01350104  RH  081%=      5-min Rain = 0
KSP2 190438Z 23008KT 14/10 A2973 RMK A01 T01350104  RH  081%=      5-min Rain = 0
KSP2 190439Z 23008KT 14/10 A2973 RMK A01 T01360104  RH  081%=      5-min Rain = 0
KSP2 190440Z 23007KT 14/10 A2973 RMK A01 T01360104  RH  081%=      5-min Rain = 0
KSP2 190441Z 24008KT 14/10 A2973 RMK A01 T01370104  RH  081%=      5-min Rain = 0
KSP2 190442Z 23008KT 14/10 A2973 RMK A01 T01360104  RH  081%=      5-min Rain = 0
KSP2 190443Z 23008KT 14/11 A2973 RMK A01 T01360105  RH  081%=      5-min Rain = 0
KSP2 190444Z 24007KT 14/10 A2973 RMK A01 T01350104  RH  082%=      5-min Rain = 0
KSP2 190445Z 24008KT 13/10 A2973 RMK A01 T01340104  RH  082%=      5-min Rain = 0
KSP2 190446Z 23007KT 13/11 A2973 RMK A01 T01340105  RH  082%=      5-min Rain = 0
KSP2 190447Z 24007KT 13/11 A2973 RMK A01 T01340105  RH  082%=      5-min Rain = 0
KSP2 190448Z 24007KT 13/10 A2973 RMK A01 T01340104  RH  082%=      5-min Rain = 0
KSP2 190449Z 24007KT 13/10 A2973 RMK A01 T01340104  RH  082%=      5-min Rain = 0
KSP2 190450Z 24007KT 13/10 A2973 RMK A01 T01340104  RH  082%=      5-min Rain = 0
KSP2 190451Z 24007KT 13/11 A2973 RMK A01 T01340105  RH  082%=      5-min Rain = 0
KSP2 190452Z 24007KT 13/10 A2973 RMK A01 T01340104  RH  082%=      5-min Rain = 0
KSP2 190453Z 24007KT 13/10 A2973 RMK A01 T01340104  RH  082%=      5-min Rain = 0
KSP2 190454Z 23007KT 13/10 A2973 RMK A01 T01340104  RH  082%=      5-min Rain = 0
KSP2 190455Z 23007KT 13/10 A2973 RMK A01 T01340104  RH  082%=      5-min Rain = 0
KSP2 190456Z 24006KT 13/10 A2973 RMK A01 T01340104  RH  082%=      5-min Rain = 0
KSP2 190457Z 24006KT 13/10 A2973 RMK A01 T01340104  RH  082%=      5-min Rain = 0
KSP2 190458Z 23007KT 13/10 A2973 RMK A01 T01340103  RH  082%=      5-min Rain = 0
KSP2 190459Z 24006KT 13/10 A2973 RMK A01 T01330103  RH  082%=      5-min Rain = 0

Page generated in 0.0719 seconds.